Portsmouth, Virginia - KPWR: 24-hour Summary Portsmouth Weather Records Service - Portsmouth, Virginia



LOCAL CLIMATOLOGICAL DATA: This Month's Data
[updated each morning between 7AM and 9AM]
Station: Portsmouth, Virginia - KPWR Latitude: 36° 48' 04" N Longitude: 76° 19' 37" W Elevation (ground): 13 ft. Time Zone: Eastern

BE SURE TO RELOAD/REFRESH THIS SCREEN FOR DAILY UPDATES BY RIGHT-CLICKING THE BACKGROUND The data in this frame and listed below are final adjusted site data for the time period.


-----------------------------------------------------------------------------------------------------------------------------------------------------------------------------------
SATURDAY		Temp	Hi	Low	Out	Dew	Wind	Wind	Wind	Hi	Hi	Wind	Heat	THW			Rain	Heat	Cool	In 	In	In 	In 	Wind	Wind	ISS 	Arc.
Date		Time	Out	Temp	Temp	Hum	Pt.	Speed	Dir	Run	Speed	Dir	Chill	Index	Index	Bar  	Rain	Rate	D-D 	D-D 	Temp	Hum	Dew	Heat	Samp	Tx 	Recept	Int.
12/01/18	1:00 a	50.0	51.1	50.0	87	46.3	5.0	NE	5.00	11.0	NE	48.2	50.2	48.4	30.092	0.00	0.00	0.625	0.000	80.2	31	46.8	78.3	1402	1	100.0	60
12/01/18	2:00 a	49.8	50.0	49.8	87	46.1	4.0	ENE	4.00	10.0	NE	48.7	50.0	48.9	30.095	0.00	0.00	0.633	0.000	79.3	32	46.9	77.7	1405	1	100.0	60
12/01/18	3:00 a	49.3	49.8	49.3	87	45.6	5.0	NE	5.00	13.0	NNE	47.4	49.5	47.6	30.106	0.00	0.00	0.654	0.000	78.5	32	46.2	77.0	1405	1	100.0	60
12/01/18	4:00 a	48.6	49.3	48.6	86	44.6	6.0	NE	6.00	13.0	NNE	46.0	48.7	46.1	30.104	0.00	0.00	0.683	0.000	77.8	32	45.6	76.4	1405	1	100.0	60
12/01/18	5:00 a	48.7	48.7	48.5	86	44.7	6.0	NE	6.00	12.0	NE	46.1	48.8	46.2	30.125	0.00	0.00	0.679	0.000	78.6	32	46.3	77.1	1405	1	100.0	60
12/01/18	6:00 a	48.3	48.7	48.3	82	43.1	5.0	NE	5.00	15.0	E	46.2	48.3	46.2	30.144	0.00	0.00	0.696	0.000	77.8	32	45.6	76.4	1405	1	100.0	60
12/01/18	7:00 a	48.0	48.3	48.0	78	41.5	6.0	ENE	6.00	13.0	ENE	45.3	47.8	45.1	30.138	0.00	0.00	0.708	0.000	78.8	31	45.6	77.1	1405	1	100.0	60
12/01/18	8:00 a	48.3	48.3	48.0	86	44.3	5.0	ENE	5.00	13.0	ENE	46.2	48.4	46.3	30.152	0.00	0.00	0.696	0.000	81.0	32	48.4	79.2	1405	1	100.0	60
12/01/18	9:00 a	49.4	49.4	48.3	89	46.3	6.0	ENE	6.00	15.0	NNE	47.0	49.7	47.3	30.152	0.00	0.00	0.650	0.000	81.9	32	49.1	80.2	1405	1	100.0	60
12/01/18	10:00 a	50.7	50.7	49.4	87	47.0	5.0	ENE	5.00	13.0	ENE	49.0	50.8	49.1	30.148	0.00	0.00	0.596	0.000	81.5	31	47.9	79.7	1405	1	100.0	60
12/01/18	11:00 a	53.9	53.9	50.7	83	48.9	5.0	ENE	5.00	15.0	SSE	52.8	53.7	52.6	30.124	0.00	0.00	0.462	0.000	80.6	32	48.0	78.8	1405	1	100.0	60
12/01/18	12:00 p	55.3	55.3	53.9	82	49.9	6.0	SSE	6.00	17.0	SE	54.0	55.1	53.8	30.112	0.00	0.00	0.404	0.000	80.1	32	47.6	78.3	1404	1	100.0	60
12/01/18	1:00 p	56.9	56.9	55.3	83	51.8	6.0	SSE	6.00	14.0	SE	55.9	56.7	55.7	30.092	0.00	0.00	0.337	0.000	80.4	32	47.8	78.6	1405	1	100.0	60
12/01/18	2:00 p	57.9	58.1	56.9	82	52.4	6.0	SSE	6.00	13.0	SE	57.1	57.7	56.9	30.069	0.00	0.00	0.296	0.000	81.1	32	48.4	79.3	1405	1	100.0	60
12/01/18	3:00 p	58.1	58.3	57.9	83	53.0	5.0	SSE	5.00	12.0	SE	57.7	58.0	57.6	30.036	0.00	0.00	0.288	0.000	80.5	32	47.9	78.7	1405	1	100.0	60
12/01/18	4:00 p	57.1	58.1	57.1	87	53.3	5.0	SSE	5.00	13.0	SSE	56.5	57.1	56.5	30.031	0.00	0.00	0.329	0.000	80.8	32	48.2	79.0	1405	1	100.0	60
12/01/18	5:00 p	56.2	57.1	56.2	91	53.6	7.0	SSE	7.00	16.0	SSE	54.6	56.3	54.7	30.040	0.02	0.09	0.367	0.000	80.3	33	48.6	78.6	1405	1	100.0	60
12/01/18	6:00 p	55.0	56.2	55.0	95	53.6	5.0	SSE	5.00	11.0	SSE	54.1	55.2	54.3	30.022	0.04	0.14	0.417	0.000	79.9	35	49.8	78.4	1405	1	100.0	60
12/01/18	7:00 p	54.8	55.0	54.7	97	54.0	0.0	S	0.00	7.0	S	54.8	55.1	55.1	30.017	0.01	0.00	0.425	0.000	80.3	34	49.4	78.7	1405	1	100.0	60
12/01/18	8:00 p	55.1	55.1	54.8	97	54.3	0.0	SE	0.00	5.0	E	55.1	55.4	55.4	30.007	0.00	0.00	0.413	0.000	79.3	34	48.5	77.9	1405	1	100.0	60
12/01/18	9:00 p	55.5	55.6	55.1	98	54.9	0.0	SE	0.00	6.0	SE	55.5	55.8	55.8	29.973	0.01	0.00	0.396	0.000	79.6	34	48.8	78.1	1405	1	100.0	60
12/01/18	10:00 p	56.6	56.6	55.6	99	56.3	5.0	SE	5.00	14.0	S	56.0	57.0	56.4	29.941	0.00	0.00	0.350	0.000	78.8	34	48.1	77.5	1405	1	100.0	60
12/01/18	11:00 p	58.5	58.5	56.6	100	58.5	10.0	SSE	10.00	18.0	S	55.2	59.0	55.7	29.916	0.01	0.00	0.271	0.000	79.2	34	48.4	77.8	1405	1	100.0	60
12/02/18	12:00 a	59.3	59.3	58.5	99	59.0	7.0	SSE	7.00	17.0	SSE	58.4	59.8	58.9	29.888	0.01	0.00	0.238	0.000	80.5	34	49.5	78.9	1404	1	100.0	60
SUNDAY			Temp	Hi	Low	Out	Dew	Wind	Wind	Wind	Hi	Hi	Wind	Heat	THW			Rain	Heat	Cool	In 	In	In 	In 	Wind	Wind	ISS 	Arc.
Date		Time	Out	Temp	Temp	Hum	Pt.	Speed	Dir	Run	Speed	Dir	Chill	Index	Index	Bar  	Rain	Rate	D-D 	D-D 	Temp	Hum	Dew	Heat	Samp	Tx 	Recept	Int.
12/02/18	1:00 a	59.9	59.9	59.2	100	59.9	10.0	SSE	10.00	19.0	SSE	56.9	60.5	57.5	29.844	0.00	0.00	0.212	0.000	79.9	35	49.8	78.4	1403	1	100.0	60
12/02/18	2:00 a	60.9	60.9	59.9	100	60.9	11.0	S	11.00	22.0	S	57.4	61.6	58.1	29.838	0.03	0.04	0.171	0.000	79.3	35	49.3	78.0	1405	1	100.0	60
12/02/18	3:00 a	61.6	61.6	60.9	100	61.6	10.0	SSE	10.00	19.0	SSE	58.8	62.4	59.6	29.804	0.02	0.04	0.142	0.000	79.0	36	49.8	77.9	1405	1	100.0	60
12/02/18	4:00 a	62.0	62.1	61.6	100	62.0	11.0	S	11.00	26.0	S	58.6	62.8	59.4	29.784	0.00	0.00	0.125	0.000	78.8	36	49.6	77.7	1405	1	100.0	60
12/02/18	5:00 a	62.0	62.0	61.9	100	62.0	10.0	S	10.00	18.0	SSE	59.3	62.8	60.1	29.768	0.00	0.00	0.125	0.000	78.6	37	50.1	77.5	1405	1	100.0	60
12/02/18	6:00 a	62.2	62.3	62.0	100	62.2	10.0	S	10.00	20.0	SSE	59.5	63.0	60.3	29.758	0.00	0.00	0.117	0.000	78.4	37	50.0	77.3	1405	1	100.0	60
12/02/18	7:00 a	62.5	62.6	62.2	100	62.5	5.0	S	5.00	14.0	S	62.5	63.4	63.4	29.761	0.00	0.00	0.104	0.000	79.6	37	51.0	78.4	1405	1	100.0	60
12/02/18	8:00 a	62.9	63.0	62.5	100	62.9	5.0	S	5.00	11.0	SSE	62.9	63.9	63.9	29.763	0.00	0.00	0.087	0.000	79.3	38	51.5	78.3	1405	1	100.0	60
12/02/18	9:00 a	64.1	64.1	63.0	100	64.1	6.0	SSW	6.00	17.0	SSE	64.1	65.2	65.2	29.769	0.00	0.00	0.038	0.000	80.4	37	51.7	79.1	1405	1	100.0	60
12/02/18	10:00 a	65.0	65.0	64.1	100	65.0	7.0	SW	7.00	18.0	SW	65.0	66.3	66.3	29.788	0.00	0.00	0.000	0.000	80.2	38	52.3	79.0	1405	1	100.0	60
12/02/18	11:00 a	65.9	66.0	65.0	99	65.6	6.0	SW	6.00	19.0	SW	65.9	67.4	67.4	29.787	0.00	0.00	0.000	0.038	80.6	37	51.9	79.3	1405	1	100.0	60
12/02/18	12:00 p	67.1	67.2	65.9	96	65.9	7.0	SSW	7.00	19.0	SW	67.1	68.8	68.8	29.763	0.00	0.00	0.000	0.087	80.8	38	52.8	79.6	1405	1	100.0	60
12/02/18	1:00 p	67.2	67.3	67.1	97	66.3	7.0	SSW	7.00	21.0	SW	67.2	68.9	68.9	29.739	0.00	0.00	0.000	0.092	81.0	38	53.0	79.8	1404	1	100.0	60
12/02/18	2:00 p	68.3	68.3	67.2	94	66.5	10.0	SSW	10.00	18.0	SW	66.2	70.3	68.2	29.711	0.00	0.00	0.000	0.138	81.0	39	53.7	79.9	1405	1	100.0	60
12/02/18	3:00 p	69.6	69.6	68.3	91	66.9	10.0	SSW	10.00	20.0	S	67.5	71.7	69.6	29.694	0.00	0.00	0.000	0.192	81.4	40	54.8	80.5	1405	1	100.0	60
12/02/18	4:00 p	69.8	70.2	69.6	90	66.7	7.0	SSW	7.00	18.0	SW	69.8	71.8	71.8	29.689	0.00	0.00	0.000	0.200	81.8	40	55.1	81.0	1405	1	100.0	60
12/02/18	5:00 p	68.1	69.8	68.1	91	65.4	7.0	SSW	7.00	17.0	SSW	68.1	69.9	69.9	29.682	0.00	0.00	0.000	0.129	81.7	40	55.0	80.9	1405	1	100.0	60
12/02/18	6:00 p	66.9	68.1	66.9	93	64.8	7.0	SSW	7.00	15.0	SSE	66.9	68.4	68.4	29.682	0.00	0.00	0.000	0.079	81.5	40	54.8	80.7	1405	1	100.0	60
12/02/18	7:00 p	66.5	66.9	66.5	93	64.4	7.0	SSW	7.00	21.0	SSE	66.5	68.0	68.0	29.672	0.00	0.00	0.000	0.063	81.3	40	54.7	80.4	1405	1	100.0	60
12/02/18	8:00 p	66.1	66.6	66.1	94	64.3	10.0	S	10.00	19.0	SSE	64.1	67.5	65.5	29.675	0.00	0.00	0.000	0.046	81.1	41	55.2	80.2	1405	1	100.0	60
12/02/18	9:00 p	67.3	67.4	66.1	94	65.5	11.0	SSW	11.00	23.0	SSE	64.7	69.0	66.4	29.698	0.00	0.00	0.000	0.096	80.9	42	55.7	80.1	1405	1	100.0	60
12/02/18	10:00 p	67.3	67.8	67.3	96	66.1	10.0	SW	10.00	20.0	SW	65.3	69.0	67.0	29.698	0.01	0.00	0.000	0.096	80.9	42	55.7	80.1	1405	1	100.0	60
12/02/18	11:00 p	67.0	67.4	66.7	98	66.4	6.0	SSW	6.00	17.0	SW	67.0	68.7	68.7	29.712	0.00	0.00	0.000	0.083	80.8	42	55.6	80.0	1405	1	100.0	60
12/03/18	12:00 a	66.9	67.0	66.9	97	66.0	6.0	SSW	6.00	17.0	SW	66.9	68.6	68.6	29.716	0.00	0.00	0.000	0.079	80.7	42	55.5	79.9	1405	1	100.0	60
MONDAY			Temp	Hi	Low	Out	Dew	Wind	Wind	Wind	Hi	Hi	Wind	Heat	THW			Rain	Heat	Cool	In 	In	In 	In 	Wind	Wind	ISS 	Arc.
Date		Time	Out	Temp	Temp	Hum	Pt.	Speed	Dir	Run	Speed	Dir	Chill	Index	Index	Bar  	Rain	Rate	D-D 	D-D 	Temp	Hum	Dew	Heat	Samp	Tx 	Recept	Int.
12/03/18	1:00 a	67.0	67.1	66.8	97	66.1	7.0	SW	7.00	18.0	SW	67.0	68.7	68.7	29.709	0.00	0.00	0.000	0.083	80.6	42	55.4	79.8	1403	1	100.0	60
12/03/18	2:00 a	66.2	67.0	66.2	97	65.3	7.0	SW	7.00	18.0	SSW	66.2	67.7	67.7	29.718	0.00	0.00	0.000	0.050	80.5	42	55.3	79.7	1405	1	100.0	60
12/03/18	3:00 a	65.3	66.2	65.3	97	64.4	7.0	SW	7.00	18.0	SW	65.3	66.6	66.6	29.721	0.00	0.00	0.000	0.013	80.3	42	55.1	79.5	1405	1	100.0	60
12/03/18	4:00 a	64.2	65.3	64.2	97	63.3	6.0	SW	6.00	16.0	SW	64.2	65.3	65.3	29.707	0.00	0.00	0.033	0.000	80.0	42	54.8	79.2	1405	1	100.0	60
12/03/18	5:00 a	62.8	64.2	62.8	97	61.9	5.0	SW	5.00	15.0	SSW	62.8	63.7	63.7	29.722	0.00	0.00	0.092	0.000	79.7	42	54.6	79.0	1405	1	100.0	60
12/03/18	6:00 a	61.3	62.8	61.3	97	60.4	5.0	SW	5.00	12.0	SW	61.3	61.9	61.9	29.736	0.00	0.00	0.154	0.000	79.3	42	54.2	78.7	1405	1	100.0	60
12/03/18	7:00 a	60.0	61.3	60.0	98	59.4	5.0	SW	5.00	13.0	SSW	60.0	60.5	60.5	29.751	0.00	0.00	0.208	0.000	79.5	42	54.4	78.8	1405	1	100.0	60
12/03/18	8:00 a	60.0	60.0	59.6	100	60.0	5.0	SW	5.00	15.0	SW	60.0	60.6	60.6	29.759	0.00	0.00	0.208	0.000	79.9	42	54.8	79.2	1405	1	100.0	60
12/03/18	9:00 a	61.2	61.2	60.0	98	60.6	6.0	SW	6.00	18.0	WSW	61.0	61.8	61.6	29.770	0.00	0.00	0.158	0.000	80.2	41	54.4	79.3	1405	1	100.0	60
12/03/18	10:00 a	63.4	63.4	61.2	83	58.1	7.0	W	7.00	18.0	WNW	63.3	63.9	63.8	29.784	0.00	0.00	0.067	0.000	81.2	41	55.3	80.4	1405	1	100.0	60
12/03/18	11:00 a	66.2	66.2	63.4	71	56.5	7.0	W	7.00	18.0	WSW	66.2	66.5	66.5	29.771	0.00	0.00	0.000	0.050	82.1	41	56.1	81.6	1405	1	100.0	60
12/03/18	12:00 p	67.3	67.3	66.2	55	50.6	7.0	W	7.00	17.0	W	67.3	66.4	66.4	29.744	0.00	0.00	0.000	0.096	82.7	41	56.6	82.4	1405	1	100.0	60
12/03/18	1:00 p	67.7	67.8	67.3	54	50.5	10.0	W	10.00	17.0	N	65.6	66.8	64.7	29.742	0.00	0.00	0.000	0.112	83.2	40	56.4	83.0	1405	1	100.0	60
12/03/18	2:00 p	68.0	68.1	67.7	51	49.2	7.0	W	7.00	22.0	W	68.0	66.8	66.8	29.735	0.00	0.00	0.000	0.125	83.5	40	56.6	83.5	1404	1	100.0	60
12/03/18	3:00 p	67.2	68.0	67.2	55	50.5	7.0	W	7.00	18.0	WSW	67.2	66.3	66.3	29.729	0.00	0.00	0.000	0.092	83.3	41	57.1	83.3	1405	1	100.0	60
12/03/18	4:00 p	66.3	67.3	66.3	52	48.1	5.0	WNW	5.00	14.0	WNW	66.3	65.0	65.0	29.734	0.00	0.00	0.000	0.054	83.3	42	57.8	83.5	1405	1	100.0	60
12/03/18	5:00 p	63.2	66.3	63.2	53	45.8	6.0	W	6.00	14.0	W	63.2	61.6	61.6	29.753	0.00	0.00	0.075	0.000	82.7	41	56.6	82.4	1405	1	100.0	60
12/03/18	6:00 p	59.8	63.2	59.8	62	46.7	4.0	WSW	4.00	10.0	WNW	59.8	58.7	58.7	29.770	0.00	0.00	0.217	0.000	81.8	41	55.8	81.2	1405	1	100.0	60
12/03/18	7:00 p	56.8	59.8	56.8	65	45.2	4.0	W	4.00	10.0	SW	56.8	55.8	55.8	29.779	0.00	0.00	0.342	0.000	82.0	40	55.3	81.3	1405	1	100.0	60
12/03/18	8:00 p	53.6	56.7	53.6	71	44.4	0.0	SW	0.00	6.0	WSW	53.6	52.9	52.9	29.780	0.00	0.00	0.475	0.000	81.3	41	55.3	80.5	1405	1	100.0	60
12/03/18	9:00 p	51.5	53.6	51.5	76	44.2	0.0	WSW	0.00	6.0	SW	51.5	51.2	51.2	29.783	0.00	0.00	0.563	0.000	81.4	40	54.8	80.5	1405	1	100.0	60
12/03/18	10:00 p	52.3	52.4	50.2	72	43.5	6.0	WSW	6.00	26.0	NE	50.4	51.7	49.8	29.830	0.00	0.00	0.529	0.000	80.3	40	53.8	79.3	1405	1	100.0	60
12/03/18	11:00 p	50.7	52.3	50.7	77	43.8	12.0	NE	12.00	25.0	ENE	45.1	50.5	44.9	29.855	0.00	0.00	0.596	0.000	79.9	39	52.7	78.8	1405	1	100.0	60
12/04/18	12:00 a	49.6	50.7	49.6	77	42.7	7.0	NE	7.00	19.0	NE	46.7	49.4	46.5	29.865	0.00	0.00	0.642	0.000	79.9	38	52.0	78.7	1405	1	100.0	60
TUESDAY			Temp	Hi	Low	Out	Dew	Wind	Wind	Wind	Hi	Hi	Wind	Heat	THW			Rain	Heat	Cool	In 	In	In 	In 	Wind	Wind	ISS 	Arc.
Date		Time	Out	Temp	Temp	Hum	Pt.	Speed	Dir	Run	Speed	Dir	Chill	Index	Index	Bar  	Rain	Rate	D-D 	D-D 	Temp	Hum	Dew	Heat	Samp	Tx 	Recept	Int.
12/04/18	1:00 a	48.7	49.6	48.6	79	42.5	5.0	NNW	5.00	14.0	N	46.7	48.6	46.6	29.862	0.00	0.00	0.679	0.000	78.8	39	51.7	77.9	1403	1	100.0	60
12/04/18	2:00 a	47.7	48.6	47.7	80	41.8	4.0	NNW	4.00	11.0	NNW	46.2	47.6	46.1	29.874	0.00	0.00	0.721	0.000	78.9	38	51.1	77.9	1406	1	100.0	60
12/04/18	3:00 a	45.7	47.7	45.7	85	41.4	0.0	NNW	0.00	4.0	NNW	45.7	45.7	45.7	29.890	0.00	0.00	0.804	0.000	78.5	38	50.8	77.5	1404	1	100.0	60
12/04/18	4:00 a	44.1	45.7	44.1	88	40.8	0.0	NNW	0.00	5.0	NNW	44.1	44.1	44.1	29.897	0.00	0.00	0.871	0.000	77.7	38	50.1	76.7	1405	1	100.0	60
12/04/18	5:00 a	43.5	44.2	43.4	90	40.8	0.0	NNW	0.00	5.0	NNW	43.5	43.5	43.5	29.920	0.00	0.00	0.896	0.000	77.7	38	50.1	76.7	1405	1	100.0	60
12/04/18	6:00 a	44.8	44.8	43.1	81	39.3	5.0	NNW	5.00	17.0	NNW	42.1	44.6	41.9	29.954	0.00	0.00	0.842	0.000	78.3	37	49.9	77.2	1405	1	100.0	60
12/04/18	7:00 a	45.4	45.8	44.8	73	37.2	10.0	NNW	10.00	20.0	NNW	39.9	45.0	39.5	29.976	0.00	0.00	0.817	0.000	78.5	37	50.1	77.4	1405	1	100.0	60
12/04/18	8:00 a	44.5	45.4	44.5	71	35.7	11.0	NNW	11.00	20.0	NNW	38.4	44.0	37.9	30.004	0.00	0.00	0.854	0.000	79.0	36	49.8	77.9	1405	1	100.0	60
12/04/18	9:00 a	45.2	45.2	44.3	72	36.7	11.0	NNW	11.00	25.0	NNW	39.2	44.7	38.7	30.027	0.00	0.00	0.825	0.000	79.4	37	50.9	78.3	1405	1	100.0	60
12/04/18	10:00 a	45.9	45.9	45.2	65	34.8	13.0	NNW	13.00	25.0	NE	39.2	45.2	38.5	30.039	0.00	0.00	0.796	0.000	79.2	37	50.7	78.1	1405	1	100.0	60
12/04/18	11:00 a	46.7	46.7	45.9	62	34.4	12.0	NNW	12.00	22.0	NNW	40.5	45.9	39.7	30.032	0.00	0.00	0.762	0.000	81.1	34	50.1	79.5	1405	1	100.0	60
12/04/18	12:00 p	47.4	47.5	46.7	60	34.2	11.0	NNW	11.00	18.0	NE	41.8	46.6	41.0	30.011	0.00	0.00	0.733	0.000	81.6	33	49.7	80.0	1404	1	100.0	60
12/04/18	1:00 p	47.8	47.8	47.3	60	34.6	11.0	NE	11.00	19.0	ENE	42.3	47.0	41.5	30.003	0.00	0.00	0.717	0.000	80.9	34	49.9	79.3	1405	1	100.0	60
12/04/18	2:00 p	47.9	48.2	47.8	61	35.1	7.0	NE	7.00	16.0	NNW	44.7	47.1	43.9	30.000	0.00	0.00	0.712	0.000	80.5	33	48.7	78.8	1405	1	100.0	60
12/04/18	3:00 p	47.4	48.4	47.4	60	34.2	10.0	NE	10.00	18.0	ENE	42.3	46.6	41.5	29.991	0.00	0.00	0.733	0.000	81.1	33	49.3	79.4	1405	1	100.0	60
12/04/18	4:00 p	46.4	47.4	46.4	61	33.7	7.0	NE	7.00	18.0	NE	42.9	45.6	42.1	30.009	0.00	0.00	0.775	0.000	80.8	32	48.2	79.0	1405	1	100.0	60
12/04/18	5:00 p	45.2	46.4	45.2	61	32.5	7.0	NE	7.00	18.0	NE	41.4	44.4	40.6	30.015	0.00	0.00	0.825	0.000	80.4	32	47.8	78.6	1405	1	100.0	60
12/04/18	6:00 p	44.9	45.2	44.9	61	32.3	7.0	NE	7.00	16.0	NE	41.1	44.1	40.3	30.017	0.00	0.00	0.837	0.000	79.9	32	47.4	78.1	1405	1	100.0	60
12/04/18	7:00 p	44.7	44.9	44.7	60	31.7	6.0	NE	6.00	15.0	NE	41.3	43.9	40.5	30.030	0.00	0.00	0.846	0.000	80.0	32	47.5	78.2	1405	1	100.0	60
12/04/18	8:00 p	44.6	44.7	44.6	63	32.8	6.0	NE	6.00	16.0	ENE	41.2	43.9	40.5	30.057	0.00	0.00	0.850	0.000	81.5	32	48.8	79.8	1405	1	100.0	60
12/04/18	9:00 p	44.3	44.6	44.3	62	32.1	5.0	NE	5.00	15.0	NE	41.5	43.5	40.7	30.062	0.00	0.00	0.863	0.000	81.9	31	48.3	80.1	1405	1	100.0	60
12/04/18	10:00 p	44.1	44.3	44.1	67	33.8	5.0	ENE	5.00	12.0	ENE	41.3	43.5	40.7	30.063	0.00	0.00	0.871	0.000	81.5	32	48.8	79.8	1405	1	100.0	60
12/04/18	11:00 p	43.7	44.1	43.7	66	33.1	6.0	NNW	6.00	14.0	NNW	40.1	43.0	39.4	30.065	0.00	0.00	0.887	0.000	81.2	32	48.5	79.4	1405	1	100.0	60
12/05/18	12:00 a	42.9	43.7	42.9	65	31.9	6.0	NNW	6.00	14.0	NNW	39.2	42.2	38.5	30.061	0.00	0.00	0.921	0.000	80.6	32	48.0	78.8	1404	1	100.0	60
WEDNESDAY		Temp	Hi	Low	Out	Dew	Wind	Wind	Wind	Hi	Hi	Wind	Heat	THW			Rain	Heat	Cool	In 	In	In 	In 	Wind	Wind	ISS 	Arc.
Date		Time	Out	Temp	Temp	Hum	Pt.	Speed	Dir	Run	Speed	Dir	Chill	Index	Index	Bar  	Rain	Rate	D-D 	D-D 	Temp	Hum	Dew	Heat	Samp	Tx 	Recept	Int.
12/05/18	1:00 a	42.3	42.9	42.2	63	30.6	6.0	NNW	6.00	18.0	NE	38.5	41.6	37.8	30.057	0.00	0.00	0.946	0.000	79.2	32	46.8	77.6	1403	1	100.0	60
12/05/18	2:00 a	42.2	42.3	42.2	65	31.3	5.0	N	5.00	13.0	NW	39.0	41.5	38.3	30.043	0.00	0.00	0.950	0.000	79.3	31	46.0	77.6	1405	1	100.0	60
12/05/18	3:00 a	41.6	42.2	41.6	68	31.8	6.0	NNW	6.00	15.0	NNW	37.6	41.0	37.0	30.040	0.00	0.00	0.975	0.000	78.8	31	45.6	77.1	1405	1	100.0	60
12/05/18	4:00 a	41.3	41.6	41.3	69	31.9	5.0	NNW	5.00	13.0	NNW	38.0	40.7	37.4	30.023	0.00	0.00	0.988	0.000	78.6	31	45.4	77.0	1405	1	100.0	60
12/05/18	5:00 a	41.0	41.3	41.0	74	33.3	5.0	NE	5.00	13.0	NNW	37.6	40.6	37.2	30.024	0.00	0.00	1.000	0.000	78.4	31	45.3	76.8	1405	1	100.0	60
12/05/18	6:00 a	40.6	41.0	40.5	75	33.3	5.0	NE	5.00	13.0	NNE	37.2	40.2	36.8	30.028	0.00	0.00	1.017	0.000	78.3	31	45.2	76.7	1405	1	100.0	60
12/05/18	7:00 a	40.4	40.6	40.4	77	33.8	4.0	NE	4.00	6.0	NE	37.8	40.0	37.4	30.034	0.00	0.00	1.025	0.000	78.1	32	45.8	76.6	1405	1	100.0	60
12/05/18	8:00 a	40.8	40.9	40.4	77	34.1	4.0	NE	4.00	6.0	NNE	38.3	40.4	37.9	30.040	0.00	0.00	1.008	0.000	78.4	31	45.3	76.8	1405	1	100.0	60
12/05/18	9:00 a	41.6	41.6	40.9	76	34.6	5.0	NW	5.00	12.0	NW	38.3	41.2	37.9	30.046	0.00	0.00	0.975	0.000	78.5	31	45.3	76.9	1404	1	100.0	60
12/05/18	10:00 a	42.5	42.5	41.6	73	34.5	5.0	NW	5.00	13.0	NW	39.4	42.0	38.9	30.051	0.00	0.00	0.938	0.000	78.4	31	45.3	76.8	1405	1	100.0	60
12/05/18	11:00 a	41.6	43.0	41.6	84	37.1	5.0	SW	5.00	12.0	SW	38.3	41.4	38.1	30.053	0.02	0.07	0.975	0.000	78.3	31	45.2	76.7	1405	1	100.0	60
12/05/18	12:00 p	38.2	41.6	38.2	90	35.5	5.0	NW	5.00	11.0	W	34.4	38.1	34.3	30.040	0.06	0.10	1.117	0.000	78.1	31	45.0	76.5	1405	1	100.0	60
12/05/18	1:00 p	37.2	38.2	37.2	92	35.1	6.0	NW	6.00	13.0	WNW	32.4	37.1	32.3	30.040	0.01	0.04	1.158	0.000	79.2	31	45.9	77.5	1405	1	100.0	60
12/05/18	2:00 p	36.7	37.2	36.4	94	35.1	6.0	WNW	6.00	14.0	W	31.8	36.7	31.8	30.043	0.02	0.07	1.179	0.000	79.9	30	45.7	77.9	1405	1	100.0	60
12/05/18	3:00 p	37.7	37.8	36.7	92	35.6	3.6	WNW	3.60	15.0	NW	35.1	37.6	35.0	30.053	0.00	0.00	1.137	0.000	81.0	30	46.6	79.0	1405	1	100.0	60
12/05/18	4:00 p	37.8	37.8	37.6	92	35.7	6.0	WNW	6.00	14.0	WNW	33.1	37.7	33.0	30.078	0.00	0.00	1.133	0.000	81.6	30	47.2	79.7	1405	1	100.0	60
12/05/18	5:00 p	37.7	37.9	37.7	90	35.0	7.0	WNW	7.00	16.0	NNW	32.4	37.6	32.3	30.098	0.00	0.00	1.137	0.000	82.6	30	48.0	80.6	1405	1	100.0	60
12/05/18	6:00 p	37.2	37.7	37.1	90	34.5	7.0	WNW	7.00	16.0	WNW	31.8	37.1	31.7	30.121	0.00	0.00	1.158	0.000	82.5	30	47.9	80.5	1405	1	100.0	60
12/05/18	7:00 p	36.9	37.3	36.9	89	34.0	7.0	NW	7.00	17.0	W	31.4	36.8	31.3	30.155	0.00	0.00	1.171	0.000	80.2	30	45.9	78.2	1405	1	100.0	60
12/05/18	8:00 p	35.6	36.9	35.6	90	33.0	6.0	WNW	6.00	15.0	WNW	30.5	35.5	30.4	30.177	0.00	0.00	1.225	0.000	79.4	30	45.3	77.5	1404	1	100.0	60
12/05/18	9:00 p	34.6	35.6	34.6	91	32.2	5.0	WNW	5.00	13.0	WNW	30.1	34.5	30.0	30.195	0.00	0.00	1.267	0.000	78.7	30	44.7	77.0	1405	1	100.0	60
12/05/18	10:00 p	33.7	34.6	33.7	93	31.9	5.0	WNW	5.00	7.0	WNW	29.1	33.6	29.0	30.215	0.00	0.00	1.304	0.000	78.5	30	44.5	76.8	1405	1	100.0	60
12/05/18	11:00 p	32.3	33.7	32.3	93	30.5	4.0	WSW	4.00	6.0	W	28.4	32.2	28.3	30.222	0.00	0.00	1.363	0.000	78.8	30	44.7	77.0	1405	1	100.0	60
12/06/18	12:00 a	31.0	32.4	31.0	94	29.5	0.0	WSW	0.00	5.0	WSW	31.0	30.9	30.9	30.252	0.00	0.00	1.417	0.000	78.0	30	44.0	76.4	1405	1	100.0	60
THURSDAY		Temp	Hi	Low	Out	Dew	Wind	Wind	Wind	Hi	Hi	Wind	Heat	THW			Rain	Heat	Cool	In 	In	In 	In 	Wind	Wind	ISS 	Arc.
Date		Time	Out	Temp	Temp	Hum	Pt.	Speed	Dir	Run	Speed	Dir	Chill	Index	Index	Bar  	Rain	Rate	D-D 	D-D 	Temp	Hum	Dew	Heat	Samp	Tx 	Recept	Int.
12/06/18	1:00 a	31.4	31.5	31.0	95	30.1	4.0	WSW	4.00	10.0	WSW	27.4	31.3	27.3	30.259	0.00	0.00	1.400	0.000	77.4	30	43.5	76.0	1404	1	100.0	60
12/06/18	2:00 a	30.4	31.4	30.4	95	29.1	0.0	WSW	0.00	5.0	WSW	30.4	30.3	30.3	30.271	0.00	0.00	1.442	0.000	76.8	30	43.0	75.5	1405	1	100.0	60
12/06/18	3:00 a	31.1	31.1	30.2	97	30.3	4.0	WSW	4.00	6.0	WSW	27.0	31.0	26.9	30.276	0.00	0.00	1.412	0.000	77.1	29	42.4	75.8	1405	1	100.0	60
12/06/18	4:00 a	31.2	31.4	31.1	96	30.2	0.0	WSW	0.00	5.0	WSW	31.2	31.1	31.1	30.279	0.00	0.00	1.408	0.000	77.4	29	42.6	76.0	1404	1	100.0	60
12/06/18	5:00 a	29.9	31.2	29.9	95	28.6	0.0	WSW	0.00	5.0	WSW	29.9	29.8	29.8	30.301	0.00	0.00	1.463	0.000	77.0	29	42.3	75.8	1405	1	100.0	60
12/06/18	6:00 a	29.2	29.9	29.2	96	28.2	0.0	WSW	0.00	5.0	WSW	29.2	29.1	29.1	30.313	0.00	0.00	1.492	0.000	76.9	29	42.2	75.6	1405	1	100.0	60
12/06/18	7:00 a	28.5	29.2	28.5	96	27.5	0.0	WSW	0.00	5.0	WSW	28.5	28.4	28.4	30.328	0.00	0.00	1.521	0.000	78.1	28	42.3	76.4	1405	1	100.0	60
12/06/18	8:00 a	28.7	28.7	28.3	97	28.0	0.0	WSW	0.00	5.0	WSW	28.7	28.6	28.6	30.347	0.00	0.00	1.512	0.000	77.9	28	42.2	76.3	1405	1	100.0	60
12/06/18	9:00 a	31.3	31.3	28.7	97	30.5	4.0	W	4.00	10.0	WSW	27.3	31.3	27.3	30.369	0.00	0.00	1.404	0.000	79.6	28	43.6	77.5	1405	1	100.0	60
12/06/18	10:00 a	34.5	34.5	31.3	92	32.4	5.0	W	5.00	12.0	W	30.0	34.4	29.9	30.382	0.00	0.00	1.271	0.000	80.0	28	44.0	77.8	1405	1	100.0	60
12/06/18	11:00 a	38.3	38.3	34.5	77	31.7	5.0	W	5.00	14.0	W	34.5	37.9	34.1	30.345	0.00	0.00	1.113	0.000	80.6	28	44.5	78.4	1405	1	100.0	60
12/06/18	12:00 p	41.3	41.3	38.3	65	30.4	5.0	W	5.00	15.0	W	38.0	40.6	37.3	30.317	0.00	0.00	0.988	0.000	80.9	27	43.8	78.5	1405	1	100.0	60
12/06/18	1:00 p	42.8	42.9	41.3	60	29.9	6.0	SW	6.00	15.0	SW	39.1	42.0	38.3	30.294	0.00	0.00	0.925	0.000	80.7	27	43.6	78.4	1405	1	100.0	60
12/06/18	2:00 p	44.2	44.2	42.8	60	31.2	7.0	SW	7.00	18.0	W	40.2	43.4	39.4	30.285	0.00	0.00	0.867	0.000	80.7	27	43.6	78.4	1404	1	100.0	60
12/06/18	3:00 p	45.1	45.1	44.2	57	30.8	7.0	WSW	7.00	19.0	WSW	41.3	44.2	40.4	30.275	0.00	0.00	0.829	0.000	81.1	27	43.9	78.7	1406	1	100.0	60
12/06/18	4:00 p	44.6	45.1	44.5	58	30.7	6.0	SW	6.00	18.0	WNW	41.2	43.7	40.3	30.285	0.00	0.00	0.850	0.000	81.0	27	43.9	78.6	1404	1	100.0	60
12/06/18	5:00 p	42.8	44.6	42.8	64	31.5	4.0	W	4.00	13.0	W	40.6	42.1	39.9	30.294	0.00	0.00	0.925	0.000	80.8	27	43.7	78.5	1405	1	100.0	60
12/06/18	6:00 p	40.1	42.8	40.1	71	31.4	0.0	W	0.00	5.0	W	40.1	39.5	39.5	30.297	0.00	0.00	1.038	0.000	80.3	27	43.3	78.0	1405	1	100.0	60
12/06/18	7:00 p	37.6	40.1	37.6	78	31.4	0.0	W	0.00	4.0	W	37.6	37.3	37.3	30.309	0.00	0.00	1.142	0.000	80.3	27	43.3	78.0	1405	1	100.0	60
12/06/18	8:00 p	36.5	37.6	36.5	80	30.9	0.0	W	0.00	5.0	W	36.5	36.2	36.2	30.309	0.00	0.00	1.188	0.000	82.1	27	44.8	79.8	1405	1	100.0	60
12/06/18	9:00 p	35.6	36.5	35.6	82	30.6	0.0	SW	0.00	5.0	SW	35.6	35.3	35.3	30.304	0.00	0.00	1.225	0.000	81.8	27	44.5	79.5	1405	1	100.0	60
12/06/18	10:00 p	34.8	35.6	34.8	82	29.9	0.0	SW	0.00	6.0	SW	34.8	34.5	34.5	30.301	0.00	0.00	1.258	0.000	81.9	27	44.6	79.6	1405	1	100.0	60
12/06/18	11:00 p	33.4	34.8	33.4	84	29.1	0.0	SW	0.00	5.0	SW	33.4	33.1	33.1	30.305	0.00	0.00	1.317	0.000	82.0	26	43.7	79.6	1405	1	100.0	60
12/07/18	12:00 a	33.7	33.7	33.1	85	29.7	4.0	SW	4.00	7.0	SW	30.0	33.4	29.7	30.293	0.00	0.00	1.304	0.000	81.2	26	43.0	78.7	1405	1	100.0	60
FRIDAY			Temp	Hi	Low	Out	Dew	Wind	Wind	Wind	Hi	Hi	Wind	Heat	THW			Rain	Heat	Cool	In 	In	In 	In 	Wind	Wind	ISS 	Arc.
Date		Time	Out	Temp	Temp	Hum	Pt.	Speed	Dir	Run	Speed	Dir	Chill	Index	Index	Bar  	Rain	Rate	D-D 	D-D 	Temp	Hum	Dew	Heat	Samp	Tx 	Recept	Int.
12/07/18	1:00 a	33.9	34.0	33.7	85	29.9	4.0	SW	4.00	7.0	SW	30.3	33.6	30.0	30.282	0.00	0.00	1.296	0.000	79.0	27	42.2	76.9	1403	1	100.0	60
12/07/18	2:00 a	35.2	35.2	33.9	83	30.6	4.0	SW	4.00	10.0	SW	31.8	35.0	31.6	30.296	0.00	0.00	1.242	0.000	78.6	27	41.8	76.7	1405	1	100.0	60
12/07/18	3:00 a	36.3	36.3	35.2	81	31.0	4.0	SW	4.00	7.0	SSW	33.0	36.0	32.7	30.298	0.00	0.00	1.196	0.000	78.0	27	41.3	76.3	1405	1	100.0	60
12/07/18	4:00 a	36.4	36.5	36.3	81	31.1	4.0	SW	4.00	7.0	SW	33.2	36.1	32.9	30.296	0.00	0.00	1.192	0.000	78.3	27	41.6	76.5	1405	1	100.0	60
12/07/18	5:00 a	36.3	36.4	36.2	83	31.6	0.0	SSW	0.00	6.0	SSW	36.3	36.1	36.1	30.309	0.00	0.00	1.196	0.000	78.1	27	41.4	76.3	1405	1	100.0	60
12/07/18	6:00 a	36.5	36.6	36.3	85	32.4	0.0	SE	0.00	6.0	SW	36.5	36.3	36.3	30.328	0.00	0.00	1.188	0.000	77.7	27	41.0	76.1	1405	1	100.0	60
12/07/18	7:00 a	37.1	37.1	36.4	84	32.7	0.0	WSW	0.00	6.0	WSW	37.1	36.9	36.9	30.353	0.00	0.00	1.163	0.000	77.9	27	41.2	76.2	1405	1	100.0	60
12/07/18	8:00 a	38.1	38.2	37.0	82	33.1	0.0	W	0.00	6.0	W	38.1	37.8	37.8	30.375	0.00	0.00	1.121	0.000	78.8	27	42.0	76.8	1405	1	100.0	60
12/07/18	9:00 a	40.3	40.3	38.1	72	32.0	5.0	W	5.00	11.0	W	36.8	39.8	36.3	30.384	0.00	0.00	1.029	0.000	79.2	27	42.3	77.1	1404	1	100.0	60
12/07/18	10:00 a	42.8	42.8	40.3	67	32.6	5.0	WNW	5.00	14.0	NNW	39.8	42.1	39.1	30.405	0.00	0.00	0.925	0.000	79.5	27	42.6	77.3	1405	1	100.0	60
12/07/18	11:00 a	45.5	45.5	42.8	62	33.2	11.0	NNW	11.00	19.0	NW	39.6	44.7	38.8	30.408	0.00	0.00	0.813	0.000	80.6	27	43.5	78.3	1405	1	100.0	60
12/07/18	12:00 p	45.9	45.9	45.5	64	34.4	11.0	NE	11.00	20.0	ENE	40.1	45.2	39.4	30.395	0.00	0.00	0.796	0.000	81.3	27	44.1	79.0	1405	1	100.0	60
12/07/18	1:00 p	46.1	46.1	45.6	67	35.7	10.0	ENE	10.00	21.0	NE	40.7	45.5	40.1	30.388	0.00	0.00	0.788	0.000	81.2	27	44.0	78.9	1405	1	100.0	60
12/07/18	2:00 p	46.1	46.3	45.6	65	35.0	6.0	ENE	6.00	16.0	NNW	43.0	45.4	42.3	30.374	0.00	0.00	0.788	0.000	81.3	27	44.1	79.0	1405	1	100.0	60
12/07/18	3:00 p	46.3	46.5	46.1	67	35.9	6.0	ENE	6.00	14.0	NNW	43.3	45.7	42.7	30.376	0.00	0.00	0.779	0.000	81.6	27	44.4	79.3	1405	1	100.0	60
12/07/18	4:00 p	44.5	46.3	44.5	69	35.0	7.0	ENE	7.00	15.0	NE	40.6	44.0	40.1	30.387	0.00	0.00	0.854	0.000	81.3	27	44.1	79.0	1405	1	100.0	60
12/07/18	5:00 p	42.9	44.5	42.9	74	35.2	6.0	NE	6.00	12.0	E	39.2	42.5	38.8	30.396	0.00	0.00	0.921	0.000	80.6	27	43.5	78.3	1405	1	100.0	60
12/07/18	6:00 p	41.6	42.9	41.6	77	34.9	5.0	NE	5.00	11.0	NE	38.3	41.2	37.9	30.404	0.00	0.00	0.975	0.000	79.8	27	42.8	77.5	1405	1	100.0	60
12/07/18	7:00 p	40.8	41.6	40.7	77	34.1	5.0	NE	5.00	12.0	ENE	37.4	40.4	37.0	30.413	0.00	0.00	1.008	0.000	80.0	27	43.0	77.7	1405	1	100.0	60
12/07/18	8:00 p	39.7	40.8	39.7	77	33.1	4.0	NE	4.00	13.0	ENE	37.0	39.3	36.6	30.431	0.00	0.00	1.054	0.000	80.2	27	43.2	77.9	1405	1	100.0	60
12/07/18	9:00 p	37.3	39.7	37.3	81	32.0	0.0	NE	0.00	4.0	NE	37.3	37.0	37.0	30.419	0.00	0.00	1.154	0.000	80.3	27	43.3	78.0	1404	1	100.0	60
12/07/18	10:00 p	35.2	37.3	35.2	84	30.9	0.0	NE	0.00	4.0	NE	35.2	35.0	35.0	30.432	0.00	0.00	1.242	0.000	79.8	27	42.8	77.5	1405	1	100.0	60
12/07/18	11:00 p	33.7	35.2	33.7	87	30.2	0.0	NE	0.00	5.0	NE	33.7	33.5	33.5	30.441	0.00	0.00	1.304	0.000	79.1	27	42.2	77.0	1405	1	100.0	60
12/08/18	12:00 a	32.8	33.7	32.8	89	29.9	0.0	NE	0.00	5.0	NE	32.8	32.6	32.6	30.420	0.00	0.00	1.342	0.000	78.3	27	41.6	76.5	1405	1	100.0	60
SATURDAY		Temp	Hi	Low	Out	Dew	Wind	Wind	Wind	Hi	Hi	Wind	Heat	THW			Rain	Heat	Cool	In 	In	In 	In 	Wind	Wind	ISS 	Arc.
Date		Time	Out	Temp	Temp	Hum	Pt.	Speed	Dir	Run	Speed	Dir	Chill	Index	Index	Bar  	Rain	Rate	D-D 	D-D 	Temp	Hum	Dew	Heat	Samp	Tx 	Recept	Int.
12/08/18	1:00 a	32.4	32.8	32.4	90	29.8	0.0	NE	0.00	6.0	NE	32.4	32.3	32.3	30.429	0.00	0.00	1.358	0.000	77.7	27	41.0	76.1	1404	1	100.0	60
12/08/18	2:00 a	31.9	32.4	31.9	91	29.6	0.0	NE	0.00	4.0	NE	31.9	31.8	31.8	30.442	0.00	0.00	1.379	0.000	76.9	28	41.3	75.6	1405	1	100.0	60
12/08/18	3:00 a	31.9	31.9	31.8	92	29.8	0.0	NNE	0.00	5.0	NE	31.9	31.8	31.8	30.436	0.00	0.00	1.379	0.000	76.7	27	40.2	75.3	1405	1	100.0	60
12/08/18	4:00 a	32.5	32.5	31.9	92	30.4	0.0	NNE	0.00	4.0	NNE	32.5	32.4	32.4	30.432	0.00	0.00	1.354	0.000	76.9	27	40.4	75.6	1405	1	100.0	60
12/08/18	5:00 a	35.0	35.0	32.5	81	29.8	5.0	N	5.00	6.0	N	30.6	34.7	30.3	30.436	0.00	0.00	1.250	0.000	76.7	27	40.2	75.3	1404	1	100.0	60
12/08/18	6:00 a	36.5	36.6	35.0	79	30.6	4.0	NE	4.00	7.0	NE	33.3	36.2	33.0	30.455	0.00	0.00	1.188	0.000	76.3	27	39.8	74.8	1405	1	100.0	60
12/08/18	7:00 a	35.2	36.5	35.2	80	29.6	4.0	NE	4.00	6.0	NE	31.8	34.9	31.5	30.471	0.00	0.00	1.242	0.000	77.5	28	41.8	76.0	1405	1	100.0	60
12/08/18	8:00 a	35.5	35.5	34.6	74	28.0	4.0	NE	4.00	11.0	NE	32.1	35.1	31.7	30.484	0.00	0.00	1.229	0.000	80.0	27	43.0	77.7	1405	1	100.0	60
12/08/18	9:00 a	39.9	39.9	35.5	59	26.7	7.0	NE	7.00	17.0	NE	35.0	39.1	34.2	30.513	0.00	0.00	1.046	0.000	81.8	26	43.6	79.4	1405	1	100.0	60
12/08/18	10:00 a	41.3	41.3	39.9	54	25.9	10.0	NE	10.00	18.0	ENE	35.2	40.3	34.2	30.534	0.00	0.00	0.988	0.000	81.4	26	43.2	79.0	1405	1	100.0	60
12/08/18	11:00 a	42.1	42.4	41.3	53	26.2	10.0	NE	10.00	17.0	ENE	36.1	41.1	35.1	30.526	0.00	0.00	0.954	0.000	81.1	26	43.0	78.6	1405	1	100.0	60
12/08/18	12:00 p	43.0	43.0	42.1	53	27.0	7.0	NE	7.00	17.0	NE	38.8	42.0	37.8	30.491	0.00	0.00	0.917	0.000	80.9	26	42.8	78.4	1405	1	100.0	60
12/08/18	1:00 p	43.6	43.8	43.0	56	28.9	7.0	ENE	7.00	16.0	ENE	39.5	42.6	38.5	30.471	0.00	0.00	0.892	0.000	81.0	25	41.9	78.4	1405	1	100.0	60
12/08/18	2:00 p	43.3	43.6	43.1	60	30.3	6.0	ENE	6.00	15.0	NE	39.7	42.5	38.9	30.468	0.00	0.00	0.904	0.000	80.8	26	42.7	78.3	1405	1	100.0	60
12/08/18	3:00 p	42.2	43.4	42.1	64	30.9	6.0	ENE	6.00	14.0	ENE	38.3	41.5	37.6	30.471	0.00	0.00	0.950	0.000	82.2	26	43.9	79.8	1405	1	100.0	60
12/08/18	4:00 p	41.6	42.2	41.6	66	31.1	5.0	ENE	5.00	10.0	NE	38.3	40.9	37.6	30.482	0.00	0.00	0.975	0.000	82.7	26	44.3	80.2	1404	1	100.0	60
12/08/18	5:00 p	40.6	41.6	40.6	69	31.2	5.0	NE	5.00	11.0	E	37.2	40.0	36.6	30.493	0.00	0.00	1.017	0.000	82.0	26	43.7	79.6	1405	1	100.0	60
12/08/18	6:00 p	40.2	40.6	40.2	70	31.2	5.0	NE	5.00	10.0	ENE	36.7	39.6	36.1	30.498	0.00	0.00	1.033	0.000	79.7	26	41.8	77.4	1405	1	100.0	60
12/08/18	7:00 p	40.0	40.3	40.0	67	29.9	7.0	NE	7.00	16.0	NE	35.1	39.3	34.4	30.484	0.00	0.00	1.042	0.000	79.1	26	41.3	76.9	1405	1	100.0	60
12/08/18	8:00 p	39.7	40.0	39.6	67	29.6	6.0	NE	6.00	16.0	NE	35.4	39.0	34.7	30.505	0.00	0.00	1.054	0.000	79.1	26	41.3	76.9	1405	1	100.0	60
12/08/18	9:00 p	39.7	39.7	39.6	64	28.5	7.0	NE	7.00	18.0	NE	34.8	39.0	34.1	30.505	0.00	0.00	1.054	0.000	79.9	26	41.9	77.5	1405	1	100.0	60
12/08/18	10:00 p	39.6	39.8	39.6	62	27.6	10.0	NE	10.00	19.0	ENE	33.1	38.8	32.3	30.514	0.00	0.00	1.058	0.000	80.8	25	41.7	78.2	1405	1	100.0	60
12/08/18	11:00 p	38.7	39.6	38.7	66	28.3	10.0	ENE	10.00	18.0	NNE	32.0	38.0	31.3	30.500	0.00	0.00	1.096	0.000	80.5	25	41.4	78.0	1405	1	100.0	60
12/09/18	12:00 a	38.0	38.8	38.0	64	26.9	11.0	ENE	11.00	19.0	NE	30.7	37.3	30.0	30.499	0.00	0.00	1.125	0.000	81.5	25	42.3	79.0	1405	1	100.0	60
SUNDAY			Temp	Hi	Low	Out	Dew	Wind	Wind	Wind	Hi	Hi	Wind	Heat	THW			Rain	Heat	Cool	In 	In	In 	In 	Wind	Wind	ISS 	Arc.
Date		Time	Out	Temp	Temp	Hum	Pt.	Speed	Dir	Run	Speed	Dir	Chill	Index	Index	Bar  	Rain	Rate	D-D 	D-D 	Temp	Hum	Dew	Heat	Samp	Tx 	Recept	Int.
12/09/18	1:00 a	37.7	38.0	37.7	62	25.8	10.0	ENE	10.00	18.0	NE	30.8	36.9	30.0	30.484	0.00	0.00	1.137	0.000	79.4	25	40.5	77.0	1403	1	100.0	60
12/09/18	2:00 a	37.8	37.8	37.7	66	27.5	7.0	NE	7.00	18.0	ENE	32.5	37.1	31.8	30.477	0.00	0.00	1.133	0.000	78.7	25	39.9	76.5	1406	1	100.0	60
12/09/18	3:00 a	37.7	37.8	37.7	66	27.4	10.0	NE	10.00	10.0	NNE	30.8	37.0	30.1	30.463	0.00	0.00	1.137	0.000	78.1	25	39.4	76.2	1404	1	100.0	60
12/09/18	4:00 a	37.8	37.8	37.6	70	28.9	7.0	NE	7.00	16.0	NE	32.5	37.2	31.9	30.430	0.00	0.00	1.133	0.000	77.6	25	39.0	76.0	1405	1	100.0	60
12/09/18	5:00 a	38.3	38.3	37.8	75	31.1	7.0	NE	7.00	16.0	NE	33.1	37.9	32.7	30.414	0.00	0.00	1.113	0.000	77.6	25	39.0	76.0	1405	1	100.0	60
12/09/18	6:00 a	38.5	38.5	38.2	77	31.9	11.0	NE	11.00	20.0	ENE	31.4	38.1	31.0	30.382	0.00	0.00	1.104	0.000	77.5	25	38.9	75.9	1405	1	100.0	60
12/09/18	7:00 a	38.9	38.9	38.5	80	33.3	7.0	NE	7.00	18.0	NNE	33.8	38.6	33.5	30.373	0.00	0.00	1.087	0.000	78.0	25	39.3	76.2	1405	1	100.0	60
12/09/18	8:00 a	37.4	38.9	37.4	90	34.7	10.0	NE	10.00	21.0	NE	30.4	37.3	30.3	30.359	0.02	0.00	1.150	0.000	78.8	25	40.0	76.6	1405	1	100.0	60
12/09/18	9:00 a	37.9	37.9	37.4	93	36.1	7.0	NE	7.00	16.0	NE	32.6	37.9	32.6	30.336	0.03	0.04	1.129	0.000	79.0	25	40.2	76.7	1405	1	100.0	60
12/09/18	10:00 a	38.6	38.6	37.9	95	37.3	7.0	NE	7.00	17.0	NE	33.5	38.6	33.5	30.313	0.06	0.12	1.100	0.000	78.8	25	40.0	76.6	1405	1	100.0	60
12/09/18	11:00 a	39.7	39.7	38.5	96	38.7	10.0	NE	10.00	20.0	ENE	33.3	39.8	33.4	30.281	0.13	0.22	1.054	0.000	80.6	25	41.5	78.0	1405	1	100.0	60
12/09/18	12:00 p	40.2	40.3	39.7	95	38.9	12.0	ENE	12.00	23.0	ENE	33.0	40.3	33.1	30.208	0.07	0.15	1.033	0.000	80.4	27	43.3	78.1	1404	1	100.0	60
12/09/18	1:00 p	41.4	41.4	40.2	96	40.3	12.0	NE	12.00	21.0	ENE	34.4	41.5	34.5	30.154	0.11	0.21	0.983	0.000	80.6	26	42.5	78.2	1406	1	100.0	60
12/09/18	2:00 p	42.1	42.3	41.4	97	41.3	14.0	NE	14.00	27.0	ENE	34.5	42.2	34.6	30.081	0.13	0.20	0.954	0.000	80.8	26	42.7	78.3	1404	1	100.0	60
12/09/18	3:00 p	41.3	42.1	41.3	97	40.5	14.0	NE	14.00	28.0	NE	33.6	41.4	33.7	30.056	0.08	0.12	0.988	0.000	80.4	26	42.4	78.0	1405	1	100.0	60
12/09/18	4:00 p	41.8	41.8	41.2	97	41.0	17.0	NE	17.00	34.0	ENE	33.3	41.9	33.4	30.029	0.11	0.19	0.967	0.000	80.0	27	43.0	77.7	1405	1	100.0	60
12/09/18	5:00 p	41.5	41.8	41.5	97	40.7	18.0	NE	18.00	34.0	NE	32.7	41.6	32.8	30.002	0.14	0.42	0.979	0.000	80.8	27	43.7	78.5	1405	1	100.0	60
12/09/18	6:00 p	41.0	41.6	40.9	97	40.2	17.0	NE	17.00	34.0	NE	32.4	41.1	32.5	29.991	0.09	0.19	1.000	0.000	79.2	27	42.3	77.1	1405	1	100.0	60
12/09/18	7:00 p	41.7	41.7	41.0	98	41.2	18.0	NE	18.00	36.0	NE	32.9	41.9	33.1	29.997	0.07	0.25	0.971	0.000	79.1	29	44.1	77.2	1405	1	100.0	60
12/09/18	8:00 p	42.3	42.4	41.7	97	41.5	20.0	NE	20.00	46.0	NNE	33.1	42.5	33.3	29.949	0.24	0.61	0.946	0.000	78.8	29	43.8	77.0	1405	1	100.0	60
12/09/18	9:00 p	42.7	42.8	42.3	98	42.2	19.0	NE	19.00	36.0	ENE	33.8	42.9	34.0	29.946	0.08	0.42	0.929	0.000	78.8	29	43.8	77.0	1405	1	100.0	60
12/09/18	10:00 p	42.8	42.9	42.7	98	42.3	17.0	NE	17.00	33.0	ENE	34.5	43.0	34.7	29.931	0.04	0.08	0.925	0.000	78.3	29	43.4	76.6	1405	1	100.0	60
12/09/18	11:00 p	43.4	43.4	42.8	98	42.9	17.0	NE	17.00	32.0	NE	35.1	43.7	35.4	29.928	0.05	0.13	0.900	0.000	78.1	29	43.2	76.4	1404	1	100.0	60
12/10/18	12:00 a	41.4	43.4	41.4	97	40.6	14.0	NE	14.00	30.0	NE	33.7	41.5	33.8	29.931	0.03	0.08	0.983	0.000	77.8	29	43.0	76.2	1406	1	100.0	60
MONDAY			Temp	Hi	Low	Out	Dew	Wind	Wind	Wind	Hi	Hi	Wind	Heat	THW			Rain	Heat	Cool	In 	In	In 	In 	Wind	Wind	ISS 	Arc.
Date		Time	Out	Temp	Temp	Hum	Pt.	Speed	Dir	Run	Speed	Dir	Chill	Index	Index	Bar  	Rain	Rate	D-D 	D-D 	Temp	Hum	Dew	Heat	Samp	Tx 	Recept	Int.
12/10/18	1:00 a	41.1	41.4	41.0	98	40.6	14.0	NE	14.00	29.0	NE	33.4	41.3	33.6	29.932	0.03	0.08	0.996	0.000	77.9	29	43.1	76.3	1403	1	100.0	60
12/10/18	2:00 a	40.6	41.1	40.6	98	40.1	15.0	NE	15.00	31.0	E	32.5	40.8	32.7	29.929	0.01	0.04	1.017	0.000	77.9	29	43.1	76.3	1405	1	100.0	60
12/10/18	3:00 a	40.7	40.7	40.4	97	39.9	14.0	NE	14.00	27.0	ENE	33.0	40.8	33.1	29.938	0.00	0.00	1.012	0.000	78.2	29	43.3	76.5	1405	1	100.0	60
12/10/18	4:00 a	41.3	41.4	40.7	96	40.2	14.0	NE	14.00	30.0	NE	33.6	41.4	33.7	29.938	0.01	0.00	0.988	0.000	78.3	29	43.4	76.6	1405	1	100.0	60
12/10/18	5:00 a	39.3	41.3	39.3	93	37.4	13.0	N	13.00	27.0	NNW	31.6	39.3	31.6	29.949	0.00	0.00	1.071	0.000	78.0	29	43.2	76.4	1405	1	100.0	60
12/10/18	6:00 a	38.5	39.3	38.5	92	36.4	13.0	N	13.00	25.0	NE	30.6	38.4	30.5	29.959	0.01	0.00	1.104	0.000	77.8	29	43.0	76.2	1405	1	100.0	60
12/10/18	7:00 a	38.5	38.5	38.3	90	35.8	12.0	NNW	12.00	26.0	NE	31.0	38.4	30.9	29.978	0.01	0.00	1.104	0.000	77.5	28	41.8	76.0	1405	1	100.0	60
12/10/18	8:00 a	37.6	38.5	37.6	86	33.8	13.0	N	13.00	27.0	NE	29.4	37.4	29.2	29.996	0.01	0.00	1.142	0.000	80.5	28	44.4	78.3	1404	1	100.0	60
12/10/18	9:00 a	37.3	37.6	37.1	87	33.8	12.0	N	12.00	27.0	NNW	29.4	37.1	29.2	30.027	0.00	0.00	1.154	0.000	81.0	27	43.9	78.6	1405	1	100.0	60
12/10/18	10:00 a	37.5	37.5	37.1	85	33.4	13.0	NE	13.00	28.0	NE	29.3	37.3	29.1	30.051	0.02	0.05	1.146	0.000	80.5	27	43.4	78.2	1405	1	100.0	60
12/10/18	11:00 a	38.2	38.2	37.5	84	33.8	13.0	NNW	13.00	31.0	NNW	30.2	38.0	30.0	30.061	0.00	0.00	1.117	0.000	79.4	28	43.4	77.3	1405	1	100.0	60
12/10/18	12:00 p	39.4	39.4	38.2	86	35.6	13.0	NNW	13.00	30.0	N	31.7	39.2	31.5	30.039	0.00	0.00	1.067	0.000	79.2	28	43.3	77.2	1405	1	100.0	60
12/10/18	1:00 p	39.2	39.5	39.0	86	35.4	14.0	NNW	14.00	28.0	N	31.1	39.0	30.9	30.034	0.00	0.00	1.075	0.000	79.4	28	43.4	77.3	1405	1	100.0	60
12/10/18	2:00 p	38.8	39.2	38.8	85	34.7	14.0	NNW	14.00	28.0	NNW	30.6	38.6	30.4	30.046	0.00	0.00	1.092	0.000	79.2	27	42.3	77.1	1405	1	100.0	60
12/10/18	3:00 p	38.3	38.9	38.3	86	34.5	12.0	NNW	12.00	26.0	N	30.7	38.1	30.5	30.052	0.00	0.00	1.113	0.000	78.8	27	42.0	76.8	1405	1	100.0	60
12/10/18	4:00 p	38.4	38.4	38.1	87	34.9	12.0	NNW	12.00	23.0	NW	30.8	38.2	30.6	30.069	0.00	0.00	1.108	0.000	78.3	28	42.5	76.5	1405	1	100.0	60
12/10/18	5:00 p	38.3	38.5	38.3	85	34.2	11.0	NE	11.00	23.0	NNW	31.1	38.1	30.9	30.084	0.00	0.00	1.113	0.000	78.1	28	42.3	76.4	1405	1	100.0	60
12/10/18	6:00 p	37.9	38.3	37.9	82	32.9	11.0	NNW	11.00	24.0	N	30.6	37.6	30.3	30.106	0.00	0.00	1.129	0.000	78.7	27	41.9	76.7	1405	1	100.0	60
12/10/18	7:00 p	38.0	38.0	37.8	82	33.0	11.0	NNW	11.00	21.0	NNW	30.7	37.7	30.4	30.109	0.00	0.00	1.125	0.000	79.4	27	42.5	77.2	1404	1	100.0	60
12/10/18	8:00 p	38.2	38.4	38.0	81	32.9	11.0	NNW	11.00	21.0	NW	31.0	37.9	30.7	30.118	0.00	0.00	1.117	0.000	80.4	27	43.3	78.1	1405	1	100.0	60
12/10/18	9:00 p	38.0	38.2	37.9	83	33.3	11.0	NNW	11.00	21.0	NNW	30.7	37.8	30.5	30.127	0.00	0.00	1.125	0.000	80.7	27	43.6	78.4	1405	1	100.0	60
12/10/18	10:00 p	38.4	38.4	38.0	84	34.0	10.0	NNW	10.00	18.0	NNW	31.7	38.2	31.5	30.134	0.00	0.00	1.108	0.000	80.2	27	43.2	77.9	1405	1	100.0	60
12/10/18	11:00 p	39.3	39.3	38.4	81	34.0	10.0	NNW	10.00	20.0	NNW	32.8	39.0	32.5	30.130	0.00	0.00	1.071	0.000	80.2	27	43.2	77.9	1405	1	100.0	60
12/11/18	12:00 a	39.3	39.3	39.3	81	34.0	10.0	N	10.00	21.0	ENE	32.8	39.0	32.5	30.126	0.00	0.00	1.071	0.000	79.8	27	42.8	77.5	1405	1	100.0	60
TUESDAY			Temp	Hi	Low	Out	Dew	Wind	Wind	Wind	Hi	Hi	Wind	Heat	THW			Rain	Heat	Cool	In 	In	In 	In 	Wind	Wind	ISS 	Arc.
Date		Time	Out	Temp	Temp	Hum	Pt.	Speed	Dir	Run	Speed	Dir	Chill	Index	Index	Bar  	Rain	Rate	D-D 	D-D 	Temp	Hum	Dew	Heat	Samp	Tx 	Recept	Int.
12/11/18	1:00 a	38.9	39.4	38.9	82	33.9	10.0	N	10.00	22.0	NE	32.3	38.6	32.0	30.112	0.00	0.00	1.087	0.000	81.0	27	43.9	78.6	1404	1	100.0	60
12/11/18	2:00 a	38.6	38.9	38.6	84	34.2	10.0	NNW	10.00	19.0	NNW	31.9	38.4	31.7	30.115	0.00	0.00	1.100	0.000	80.9	26	42.8	78.4	1405	1	100.0	60
12/11/18	3:00 a	38.3	38.6	38.3	83	33.6	10.0	NNW	10.00	19.0	NNW	31.5	38.1	31.3	30.118	0.00	0.00	1.113	0.000	80.3	27	43.3	78.0	1405	1	100.0	60
12/11/18	4:00 a	37.6	38.4	37.6	84	33.2	11.0	NNW	11.00	19.0	NW	30.2	37.4	30.0	30.103	0.00	0.00	1.142	0.000	80.1	27	43.1	77.8	1404	1	100.0	60
12/11/18	5:00 a	37.8	37.9	37.5	84	33.4	10.0	NNW	10.00	20.0	NNW	30.9	37.6	30.7	30.093	0.00	0.00	1.133	0.000	80.8	26	42.7	78.3	1405	1	100.0	60
12/11/18	6:00 a	37.5	37.9	37.5	86	33.7	10.0	NNW	10.00	17.0	NNW	30.5	37.3	30.3	30.101	0.00	0.00	1.146	0.000	80.6	26	42.5	78.2	1405	1	100.0	60
12/11/18	7:00 a	36.6	37.5	36.6	88	33.4	7.0	NNW	7.00	15.0	N	31.0	36.5	30.9	30.110	0.00	0.00	1.183	0.000	78.5	27	41.7	76.6	1405	1	100.0	60
12/11/18	8:00 a	35.4	36.6	35.3	89	32.5	7.0	NW	7.00	15.0	NW	29.6	35.3	29.5	30.123	0.00	0.00	1.233	0.000	78.8	27	42.0	76.8	1405	1	100.0	60
12/11/18	9:00 a	37.1	37.1	35.3	87	33.6	7.0	NNW	7.00	12.0	NW	31.6	36.9	31.4	30.141	0.00	0.00	1.163	0.000	79.9	27	42.9	77.6	1405	1	100.0	60
12/11/18	10:00 a	39.1	39.1	37.1	80	33.5	11.0	NNW	11.00	19.0	NNW	32.1	38.8	31.8	30.145	0.00	0.00	1.079	0.000	80.6	26	42.5	78.2	1405	1	100.0	60
12/11/18	11:00 a	41.0	41.0	39.1	71	32.3	12.0	NNW	12.00	22.0	NNW	34.0	40.4	33.4	30.117	0.00	0.00	1.000	0.000	81.6	26	43.4	79.2	1405	1	100.0	60
12/11/18	12:00 p	42.5	42.5	40.9	72	34.1	12.0	NNW	12.00	22.0	NNW	35.7	42.0	35.2	30.073	0.00	0.00	0.938	0.000	82.0	26	43.7	79.6	1405	1	100.0	60
12/11/18	1:00 p	43.0	43.0	42.5	72	34.6	10.0	NNW	10.00	17.0	WNW	37.1	42.5	36.6	30.054	0.00	0.00	0.917	0.000	82.0	26	43.7	79.6	1405	1	100.0	60
12/11/18	2:00 p	44.4	44.4	43.0	68	34.5	7.0	NNW	7.00	17.0	NE	40.5	43.8	39.9	30.043	0.00	0.00	0.858	0.000	81.7	26	43.5	79.3	1405	1	100.0	60
12/11/18	3:00 p	44.8	44.8	44.4	64	33.4	7.0	WNW	7.00	16.0	NW	41.0	44.1	40.3	30.042	0.00	0.00	0.842	0.000	82.3	26	44.0	79.9	1404	1	100.0	60
12/11/18	4:00 p	44.0	44.8	44.0	62	31.8	7.0	NW	7.00	17.0	NNW	40.0	43.2	39.2	30.050	0.00	0.00	0.875	0.000	82.0	27	44.7	79.7	1405	1	100.0	60
12/11/18	5:00 p	41.9	44.0	41.9	63	30.2	5.0	WNW	5.00	13.0	NW	38.7	41.2	38.0	30.055	0.00	0.00	0.962	0.000	81.7	27	44.5	79.4	1405	1	100.0	60
12/11/18	6:00 p	38.4	41.9	38.4	70	29.5	4.0	W	4.00	7.0	W	35.5	37.8	34.9	30.065	0.00	0.00	1.108	0.000	81.0	27	43.9	78.6	1405	1	100.0	60
12/11/18	7:00 p	36.0	38.5	36.0	76	29.2	0.0	W	0.00	5.0	W	36.0	35.6	35.6	30.069	0.00	0.00	1.208	0.000	80.2	27	43.2	77.9	1405	1	100.0	60
12/11/18	8:00 p	34.3	36.0	34.3	79	28.5	4.0	SW	4.00	13.0	W	30.7	33.9	30.3	30.077	0.00	0.00	1.279	0.000	80.9	26	42.8	78.4	1405	1	100.0	60
12/11/18	9:00 p	32.7	34.3	32.7	84	28.4	4.0	SW	4.00	7.0	SW	28.9	32.5	28.7	30.074	0.00	0.00	1.346	0.000	81.8	26	43.6	79.4	1405	1	100.0	60
12/11/18	10:00 p	32.0	32.7	32.0	86	28.3	5.0	SW	5.00	10.0	SW	27.1	31.8	26.9	30.063	0.00	0.00	1.375	0.000	81.0	26	42.9	78.5	1405	1	100.0	60
12/11/18	11:00 p	31.5	32.0	31.5	86	27.8	5.0	SW	5.00	12.0	SSW	26.5	31.3	26.3	30.058	0.00	0.00	1.396	0.000	81.5	25	42.3	79.0	1405	1	100.0	60
12/12/18	12:00 a	30.9	31.5	30.8	87	27.5	4.0	SW	4.00	7.0	SW	26.8	30.7	26.6	30.046	0.00	0.00	1.421	0.000	80.8	25	41.7	78.2	1405	1	100.0	60
WEDNESDAY		Temp	Hi	Low	Out	Dew	Wind	Wind	Wind	Hi	Hi	Wind	Heat	THW			Rain	Heat	Cool	In 	In	In 	In 	Wind	Wind	ISS 	Arc.
Date		Time	Out	Temp	Temp	Hum	Pt.	Speed	Dir	Run	Speed	Dir	Chill	Index	Index	Bar  	Rain	Rate	D-D 	D-D 	Temp	Hum	Dew	Heat	Samp	Tx 	Recept	Int.
12/12/18	1:00 a	31.6	31.6	30.8	84	27.3	4.0	WSW	4.00	13.0	WSW	27.6	31.4	27.4	30.058	0.00	0.00	1.392	0.000	78.6	26	40.8	76.6	1403	1	100.0	60
12/12/18	2:00 a	32.2	32.6	31.6	80	26.7	4.0	W	4.00	14.0	SW	28.3	31.9	28.0	30.083	0.00	0.00	1.367	0.000	78.2	26	40.5	76.4	1405	1	100.0	60
12/12/18	3:00 a	30.5	32.2	30.5	84	26.2	0.0	W	0.00	5.0	W	30.5	30.3	30.3	30.110	0.00	0.00	1.438	0.000	78.2	26	40.5	76.4	1405	1	100.0	60
12/12/18	4:00 a	29.2	30.5	29.2	86	25.5	0.0	W	0.00	5.0	W	29.2	29.0	29.0	30.122	0.00	0.00	1.492	0.000	77.5	26	39.9	76.0	1405	1	100.0	60
12/12/18	5:00 a	28.6	29.2	28.5	88	25.5	4.0	W	4.00	7.0	W	24.1	28.4	23.9	30.136	0.00	0.00	1.517	0.000	77.2	26	39.6	75.8	1405	1	100.0	60
12/12/18	6:00 a	28.5	28.6	28.5	89	25.7	4.0	W	4.00	7.0	W	24.0	28.3	23.8	30.160	0.00	0.00	1.521	0.000	78.3	25	39.6	76.3	1405	1	100.0	60
12/12/18	7:00 a	29.4	29.4	28.5	90	26.8	0.0	W	0.00	5.0	W	29.4	29.2	29.2	30.180	0.00	0.00	1.483	0.000	78.2	25	39.5	76.3	1405	1	100.0	60
12/12/18	8:00 a	30.7	30.7	29.4	90	28.1	0.0	W	0.00	5.0	W	30.7	30.5	30.5	30.201	0.00	0.00	1.429	0.000	80.9	24	40.7	78.2	1405	1	100.0	60
12/12/18	9:00 a	33.8	33.8	30.7	88	30.6	0.0	SW	0.00	7.0	SW	33.8	33.6	33.6	30.217	0.00	0.00	1.300	0.000	81.4	24	41.1	78.7	1404	1	100.0	60
12/12/18	10:00 a	37.9	37.9	33.8	80	32.3	4.0	SW	4.00	10.0	SW	34.9	37.6	34.6	30.224	0.00	0.00	1.129	0.000	81.7	24	41.4	79.1	1405	1	100.0	60
12/12/18	11:00 a	42.7	42.7	37.9	60	29.8	5.0	WSW	5.00	15.0	WNW	39.6	41.9	38.8	30.213	0.00	0.00	0.929	0.000	82.1	24	41.7	79.5	1405	1	100.0	60
12/12/18	12:00 p	44.5	44.5	42.7	55	29.3	7.0	NW	7.00	17.0	NW	40.6	43.5	39.6	30.198	0.00	0.00	0.854	0.000	82.4	24	42.0	79.8	1405	1	100.0	60
12/12/18	1:00 p	46.1	46.1	44.5	52	29.4	6.0	ENE	6.00	13.0	WNW	43.0	45.0	41.9	30.172	0.00	0.00	0.788	0.000	82.2	24	41.8	79.6	1405	1	100.0	60
12/12/18	2:00 p	46.7	46.7	46.1	50	29.0	5.0	ENE	5.00	12.0	ENE	44.3	45.5	43.1	30.160	0.00	0.00	0.762	0.000	81.9	25	42.6	79.4	1405	1	100.0	60
12/12/18	3:00 p	46.6	46.9	46.6	53	30.4	5.0	ENE	5.00	12.0	ENE	44.2	45.5	43.1	30.172	0.00	0.00	0.767	0.000	81.6	25	42.4	79.1	1405	1	100.0	60
12/12/18	4:00 p	46.1	46.6	46.1	55	30.8	4.0	ENE	4.00	10.0	ENE	44.3	45.1	43.3	30.186	0.00	0.00	0.788	0.000	81.4	25	42.2	78.8	1405	1	100.0	60
12/12/18	5:00 p	44.5	46.1	44.5	67	34.2	5.0	ENE	5.00	13.0	SSE	41.8	43.9	41.2	30.207	0.00	0.00	0.854	0.000	80.6	26	42.5	78.2	1405	1	100.0	60
12/12/18	6:00 p	42.2	44.4	42.2	73	34.2	5.0	SSE	5.00	11.0	SSE	39.0	41.7	38.5	30.205	0.00	0.00	0.950	0.000	80.1	26	42.1	77.7	1405	1	100.0	60
12/12/18	7:00 p	41.2	42.2	41.2	76	34.2	5.0	SSE	5.00	13.0	SE	37.8	40.8	37.4	30.215	0.00	0.00	0.992	0.000	80.8	26	42.7	78.3	1405	1	100.0	60
12/12/18	8:00 p	40.8	41.2	40.8	77	34.1	6.0	SSE	6.00	12.0	S	36.7	40.4	36.3	30.215	0.00	0.00	1.008	0.000	81.4	25	42.2	78.8	1404	1	100.0	60
12/12/18	9:00 p	40.7	40.9	40.7	76	33.7	6.0	S	6.00	14.0	SSE	36.6	40.3	36.2	30.227	0.00	0.00	1.012	0.000	80.8	26	42.7	78.3	1405	1	100.0	60
12/12/18	10:00 p	39.2	40.7	39.2	78	32.9	5.0	S	5.00	14.0	SSE	35.5	38.9	35.2	30.230	0.00	0.00	1.075	0.000	79.9	26	41.9	77.5	1405	1	100.0	60
12/12/18	11:00 p	36.9	39.2	36.9	82	31.9	5.0	S	5.00	7.0	S	32.8	36.6	32.5	30.224	0.00	0.00	1.171	0.000	79.8	26	41.9	77.4	1405	1	100.0	60
12/13/18	12:00 a	35.0	36.9	35.0	85	30.9	0.0	S	0.00	4.0	S	35.0	34.8	34.8	30.223	0.00	0.00	1.250	0.000	79.4	26	41.5	77.1	1406	1	100.0	60
THURSDAY		Temp	Hi	Low	Out	Dew	Wind	Wind	Wind	Hi	Hi	Wind	Heat	THW			Rain	Heat	Cool	In 	In	In 	In 	Wind	Wind	ISS 	Arc.
Date		Time	Out	Temp	Temp	Hum	Pt.	Speed	Dir	Run	Speed	Dir	Chill	Index	Index	Bar  	Rain	Rate	D-D 	D-D 	Temp	Hum	Dew	Heat	Samp	Tx 	Recept	Int.
12/13/18	1:00 a	33.9	35.1	33.9	89	31.0	5.0	SSE	5.00	11.0	SSE	29.3	33.7	29.1	30.213	0.00	0.00	1.296	0.000	78.7	26	40.9	76.6	1403	1	100.0	60
12/13/18	2:00 a	33.5	33.9	33.5	90	30.9	0.0	S	0.00	7.0	S	33.5	33.3	33.3	30.226	0.00	0.00	1.313	0.000	78.1	26	40.4	76.3	1405	1	100.0	60
12/13/18	3:00 a	32.3	33.5	32.3	92	30.2	4.0	S	4.00	6.0	S	28.4	32.2	28.3	30.231	0.00	0.00	1.363	0.000	77.7	26	40.1	76.1	1405	1	100.0	60
12/13/18	4:00 a	32.2	32.3	32.1	93	30.4	4.0	S	4.00	6.0	S	28.3	32.1	28.2	30.221	0.00	0.00	1.367	0.000	77.8	26	40.2	76.1	1405	1	100.0	60
12/13/18	5:00 a	32.2	32.4	32.1	94	30.7	0.0	S	0.00	6.0	S	32.2	32.1	32.1	30.234	0.00	0.00	1.367	0.000	78.3	26	40.6	76.4	1404	1	100.0	60
12/13/18	6:00 a	31.4	32.2	31.4	94	29.9	0.0	S	0.00	4.0	S	31.4	31.3	31.3	30.248	0.00	0.00	1.400	0.000	77.7	26	40.1	76.1	1405	1	100.0	60
12/13/18	7:00 a	31.4	31.4	31.2	95	30.1	0.0	S	0.00	4.0	S	31.4	31.3	31.3	30.268	0.00	0.00	1.400	0.000	78.4	25	39.7	76.4	1405	1	100.0	60
12/13/18	8:00 a	33.3	33.3	31.4	97	32.5	0.0	S	0.00	5.0	S	33.3	33.2	33.2	30.281	0.00	0.00	1.321	0.000	79.2	25	40.3	76.9	1405	1	100.0	60
12/13/18	9:00 a	38.8	38.8	33.3	99	38.5	4.0	S	4.00	10.0	SSW	35.9	38.9	36.0	30.304	0.00	0.00	1.092	0.000	79.5	25	40.6	77.1	1405	1	100.0	60
12/13/18	10:00 a	44.7	44.7	38.8	87	41.1	5.0	S	5.00	12.0	SSE	42.0	44.7	42.0	30.314	0.00	0.00	0.846	0.000	79.6	27	42.7	77.4	1405	1	100.0	60
12/13/18	11:00 a	49.6	49.6	44.7	76	42.3	6.0	S	6.00	11.0	SSE	47.2	49.4	47.0	30.313	0.00	0.00	0.642	0.000	79.7	26	41.8	77.4	1405	1	100.0	60
12/13/18	12:00 p	52.7	52.7	49.6	70	43.2	6.0	S	6.00	14.0	S	50.8	52.0	50.1	30.282	0.00	0.00	0.512	0.000	80.0	26	42.0	77.6	1405	1	100.0	60
12/13/18	1:00 p	55.2	55.2	52.7	61	42.0	10.0	S	10.00	20.0	SSE	51.3	54.0	50.1	30.275	0.00	0.00	0.408	0.000	81.0	26	42.9	78.5	1405	1	100.0	60
12/13/18	2:00 p	56.2	56.2	55.1	59	42.1	6.0	S	6.00	14.0	SSE	55.0	54.8	53.6	30.270	0.00	0.00	0.367	0.000	81.4	26	43.2	79.0	1405	1	100.0	60
12/13/18	3:00 p	56.9	56.9	56.2	58	42.3	4.0	S	4.00	11.0	SW	56.9	55.5	55.5	30.294	0.00	0.00	0.337	0.000	81.9	26	43.6	79.5	1405	1	100.0	60
12/13/18	4:00 p	53.5	57.0	53.5	67	42.8	5.0	NNW	5.00	11.0	NW	52.3	52.6	51.4	30.302	0.00	0.00	0.479	0.000	81.9	27	44.6	79.6	1404	1	100.0	60
12/13/18	5:00 p	51.0	53.5	51.0	72	42.3	0.0	ENE	0.00	7.0	ENE	51.0	50.6	50.6	30.310	0.00	0.00	0.583	0.000	81.6	27	44.4	79.3	1406	1	100.0	60
12/13/18	6:00 p	50.8	51.0	49.5	75	43.2	0.0	ENE	0.00	4.0	ENE	50.8	50.5	50.5	30.332	0.00	0.00	0.592	0.000	81.4	27	44.2	79.1	1404	1	100.0	60
12/13/18	7:00 p	48.4	50.8	48.4	79	42.2	0.0	ENE	0.00	5.0	ENE	48.4	48.3	48.3	30.336	0.00	0.00	0.692	0.000	81.4	27	44.2	79.1	1405	1	100.0	60
12/13/18	8:00 p	47.2	48.4	47.1	83	42.3	0.0	ENE	0.00	4.0	ENE	47.2	47.1	47.1	30.354	0.00	0.00	0.742	0.000	81.1	28	44.9	78.9	1405	1	100.0	60
12/13/18	9:00 p	46.2	47.2	46.2	85	41.9	0.0	ENE	0.00	5.0	ENE	46.2	46.2	46.2	30.346	0.00	0.00	0.783	0.000	80.9	28	44.7	78.7	1405	1	100.0	60
12/13/18	10:00 p	45.0	46.2	45.0	87	41.4	0.0	ENE	0.00	4.0	ENE	45.0	45.0	45.0	30.355	0.00	0.00	0.833	0.000	80.8	28	44.6	78.6	1405	1	100.0	60
12/13/18	11:00 p	43.6	45.0	43.6	88	40.3	0.0	ENE	0.00	4.0	ENE	43.6	43.6	43.6	30.358	0.00	0.00	0.892	0.000	80.5	28	44.4	78.3	1405	1	100.0	60
12/14/18	12:00 a	41.5	43.6	41.5	88	38.2	0.0	ENE	0.00	4.0	ENE	41.5	41.4	41.4	30.357	0.00	0.00	0.979	0.000	80.5	28	44.4	78.3	1406	1	100.0	60
FRIDAY			Temp	Hi	Low	Out	Dew	Wind	Wind	Wind	Hi	Hi	Wind	Heat	THW			Rain	Heat	Cool	In 	In	In 	In 	Wind	Wind	ISS 	Arc.
Date		Time	Out	Temp	Temp	Hum	Pt.	Speed	Dir	Run	Speed	Dir	Chill	Index	Index	Bar  	Rain	Rate	D-D 	D-D 	Temp	Hum	Dew	Heat	Samp	Tx 	Recept	Int.
12/14/18	1:00 a	39.6	41.4	39.6	90	36.9	0.0	ENE	0.00	4.0	ENE	39.6	39.5	39.5	30.353	0.00	0.00	1.058	0.000	80.3	28	44.2	78.1	1403	1	100.0	60
12/14/18	2:00 a	38.2	39.6	38.2	92	36.1	0.0	ENE	0.00	4.0	ENE	38.2	38.1	38.1	30.357	0.00	0.00	1.117	0.000	79.7	28	43.7	77.6	1404	1	100.0	60
12/14/18	3:00 a	37.1	38.2	37.1	94	35.5	0.0	ENE	0.00	5.0	ENE	37.1	37.1	37.1	30.345	0.00	0.00	1.163	0.000	79.0	28	43.1	77.0	1405	1	100.0	60
12/14/18	4:00 a	36.6	37.1	36.6	94	35.0	0.0	ENE	0.00	5.0	ENE	36.6	36.6	36.6	30.329	0.00	0.00	1.183	0.000	78.4	28	42.6	76.6	1405	1	100.0	60
12/14/18	5:00 a	35.6	36.6	35.6	95	34.3	4.0	W	4.00	6.0	NW	32.2	35.6	32.2	30.336	0.00	0.00	1.225	0.000	77.9	28	42.2	76.3	1405	1	100.0	60
12/14/18	6:00 a	34.3	35.6	34.3	95	33.0	0.0	W	0.00	5.0	W	34.3	34.2	34.2	30.362	0.00	0.00	1.279	0.000	77.9	28	42.2	76.3	1405	1	100.0	60
12/14/18	7:00 a	34.4	34.4	34.1	96	33.4	0.0	NNW	0.00	5.0	W	34.4	34.4	34.4	30.385	0.00	0.00	1.275	0.000	78.6	27	41.8	76.7	1405	1	100.0	60
12/14/18	8:00 a	36.8	36.8	34.4	97	36.0	0.0	NNW	0.00	5.0	NNW	36.8	36.8	36.8	30.377	0.00	0.00	1.175	0.000	78.9	27	42.1	76.8	1405	1	100.0	60
12/14/18	9:00 a	41.3	41.3	36.8	99	41.0	0.0	NNW	0.00	6.0	ENE	41.3	41.5	41.5	30.369	0.00	0.00	0.988	0.000	79.1	27	42.2	77.0	1405	1	100.0	60
12/14/18	10:00 a	47.2	47.2	41.4	95	45.8	6.0	ENE	6.00	14.0	ENE	44.3	47.5	44.6	30.363	0.00	0.00	0.742	0.000	78.9	27	42.1	76.8	1405	1	100.0	60
12/14/18	11:00 a	51.0	51.0	47.3	87	47.3	5.0	ENE	5.00	10.0	NE	49.4	51.1	49.5	30.329	0.00	0.00	0.583	0.000	79.1	27	42.2	77.0	1405	1	100.0	60
12/14/18	12:00 p	54.3	54.3	51.0	82	48.9	5.0	ENE	5.00	11.0	NE	53.3	54.1	53.1	30.291	0.00	0.00	0.446	0.000	79.3	27	42.4	77.1	1404	1	100.0	60
12/14/18	1:00 p	56.0	56.0	54.3	80	49.9	5.0	ENE	5.00	10.0	NE	55.3	55.7	55.0	30.272	0.00	0.00	0.375	0.000	81.1	27	43.9	78.7	1406	1	100.0	60
12/14/18	2:00 p	56.3	56.5	56.0	81	50.5	5.0	NE	5.00	10.0	NE	55.6	56.0	55.3	30.257	0.00	0.00	0.363	0.000	81.3	28	45.1	79.1	1404	1	100.0	60
12/14/18	3:00 p	53.3	56.3	53.3	88	49.8	6.0	NE	6.00	13.0	ENE	51.6	53.3	51.6	30.251	0.00	0.00	0.488	0.000	81.3	28	45.1	79.1	1405	1	100.0	60
12/14/18	4:00 p	52.4	53.3	52.4	90	49.6	6.0	ENE	6.00	12.0	ENE	50.5	52.6	50.7	30.231	0.00	0.00	0.525	0.000	81.4	29	46.1	79.3	1405	1	100.0	60
12/14/18	5:00 p	52.3	52.4	52.3	92	50.0	5.0	ENE	5.00	10.0	NE	50.9	52.5	51.1	30.215	0.00	0.00	0.529	0.000	81.4	29	46.1	79.3	1405	1	100.0	60
12/14/18	6:00 p	52.9	52.9	52.3	95	51.5	5.0	ENE	5.00	11.0	E	51.6	53.2	51.9	30.215	0.00	0.00	0.504	0.000	81.3	29	46.0	79.2	1405	1	100.0	60
12/14/18	7:00 p	53.7	53.7	52.9	97	52.9	4.0	ENE	4.00	6.0	ENE	53.1	54.0	53.4	30.192	0.01	0.00	0.471	0.000	81.0	29	45.7	78.9	1405	1	100.0	60
12/14/18	8:00 p	55.3	55.4	53.7	99	55.0	4.0	ENE	4.00	6.0	ENE	55.0	55.7	55.4	30.170	0.00	0.00	0.404	0.000	82.2	29	46.8	80.2	1405	1	100.0	60
12/14/18	9:00 p	56.5	56.5	55.4	98	55.9	4.0	SE	4.00	7.0	SSE	56.4	56.8	56.7	30.139	0.00	0.00	0.354	0.000	82.4	29	46.9	80.3	1405	1	100.0	60
12/14/18	10:00 p	56.7	56.7	56.5	97	55.9	5.0	SE	5.00	14.0	ESE	56.1	57.0	56.4	30.111	0.01	0.00	0.346	0.000	82.6	30	48.0	80.6	1405	1	100.0	60
12/14/18	11:00 p	57.3	57.3	56.7	98	56.7	6.0	SE	6.00	15.0	S	56.4	57.6	56.7	30.079	0.03	0.06	0.321	0.000	82.7	30	48.1	80.7	1405	1	100.0	60
12/15/18	12:00 a	58.8	58.8	57.3	99	58.5	7.0	SE	7.00	19.0	SE	57.8	59.3	58.3	30.048	0.04	0.06	0.258	0.000	81.6	31	48.0	79.8	1405	1	100.0	60
SATURDAY		Temp	Hi	Low	Out	Dew	Wind	Wind	Wind	Hi	Hi	Wind	Heat	THW			Rain	Heat	Cool	In 	In	In 	In 	Wind	Wind	ISS 	Arc.
Date		Time	Out	Temp	Temp	Hum	Pt.	Speed	Dir	Run	Speed	Dir	Chill	Index	Index	Bar  	Rain	Rate	D-D 	D-D 	Temp	Hum	Dew	Heat	Samp	Tx 	Recept	Int.
12/15/18	1:00 a	59.4	59.5	58.8	99	59.1	7.0	SE	7.00	17.0	SE	58.5	59.9	59.0	30.011	0.09	0.31	0.233	0.000	81.0	31	47.5	79.1	1404	1	100.0	60
12/15/18	2:00 a	60.8	60.8	59.5	100	60.8	7.0	SE	7.00	21.0	SSE	60.2	61.5	60.9	29.984	0.32	0.74	0.175	0.000	80.3	32	47.7	78.5	1405	1	100.0	60
12/15/18	3:00 a	61.6	61.7	60.8	100	61.6	10.0	SSE	10.00	17.0	SSE	58.8	62.4	59.6	29.951	0.03	0.26	0.142	0.000	79.9	32	47.4	78.1	1404	1	100.0	60
12/15/18	4:00 a	61.6	61.6	61.4	100	61.6	6.0	SE	6.00	14.0	SSE	61.5	62.4	62.3	29.924	0.05	0.45	0.142	0.000	79.5	32	47.1	77.8	1405	1	100.0	60
12/15/18	5:00 a	60.9	61.6	60.9	99	60.6	5.0	SSE	5.00	12.0	SSE	60.9	61.6	61.6	29.915	0.00	0.00	0.171	0.000	79.2	33	47.6	77.7	1405	1	100.0	60
12/15/18	6:00 a	60.4	60.9	60.4	99	60.1	0.0	SSE	0.00	4.0	SSE	60.4	61.0	61.0	29.908	0.00	0.00	0.192	0.000	79.0	33	47.4	77.6	1405	1	100.0	60
12/15/18	7:00 a	60.2	60.4	59.9	100	60.2	4.0	SSE	4.00	7.0	S	60.2	60.8	60.8	29.934	0.00	0.00	0.200	0.000	79.8	33	48.1	78.2	1405	1	100.0	60
12/15/18	8:00 a	61.1	61.1	60.2	100	61.1	5.0	S	5.00	11.0	S	61.1	61.8	61.8	29.924	0.00	0.00	0.163	0.000	79.6	33	48.0	78.0	1405	1	100.0	60
12/15/18	9:00 a	62.3	62.3	61.1	100	62.3	4.0	S	4.00	7.0	S	62.3	63.2	63.2	29.943	0.02	0.07	0.113	0.000	82.0	33	50.1	80.5	1405	1	100.0	60
12/15/18	10:00 a	63.8	63.8	62.3	100	63.8	6.0	S	6.00	14.0	S	63.8	64.9	64.9	29.952	0.07	0.35	0.050	0.000	82.6	33	50.6	81.1	1405	1	100.0	60
12/15/18	11:00 a	65.0	65.0	63.8	100	65.0	6.0	SW	6.00	15.0	SW	65.0	66.3	66.3	29.930	0.01	0.00	0.000	0.000	82.1	34	50.9	80.7	1405	1	100.0	60
12/15/18	12:00 p	66.1	66.1	65.0	100	66.1	5.0	SSW	5.00	11.0	S	66.1	67.6	67.6	29.890	0.00	0.00	0.000	0.046	82.1	34	50.9	80.7	1405	1	100.0	60
12/15/18	1:00 p	66.8	66.8	66.1	100	66.8	4.0	SSW	4.00	10.0	S	66.8	68.5	68.5	29.873	0.01	0.00	0.000	0.075	82.3	34	51.1	80.9	1404	1	100.0	60
12/15/18	2:00 p	66.2	66.8	66.2	100	66.2	4.0	SSW	4.00	10.0	SW	66.2	67.8	67.8	29.860	0.00	0.00	0.000	0.050	82.3	34	51.1	80.9	1406	1	100.0	60
12/15/18	3:00 p	66.0	66.3	66.0	100	66.0	4.0	S	4.00	6.0	SW	66.0	67.5	67.5	29.868	0.01	0.00	0.000	0.042	82.4	35	52.0	81.1	1404	1	100.0	60
12/15/18	4:00 p	65.8	66.2	65.8	99	65.5	0.0	S	0.00	13.0	NNW	65.8	67.2	67.2	29.857	0.00	0.00	0.000	0.033	83.3	34	52.0	82.1	1405	1	100.0	60
12/15/18	5:00 p	60.2	65.7	60.2	98	59.6	5.0	NNW	5.00	13.0	NNW	60.2	60.7	60.7	29.873	0.01	0.00	0.200	0.000	83.6	35	53.1	82.7	1405	1	100.0	60
12/15/18	6:00 p	59.4	60.2	59.4	99	59.1	4.0	NNW	4.00	6.0	NNW	59.4	59.9	59.9	29.894	0.00	0.00	0.233	0.000	82.6	35	52.2	81.4	1405	1	100.0	60
12/15/18	7:00 p	59.3	59.5	59.3	99	59.0	4.0	NW	4.00	7.0	WNW	59.3	59.8	59.8	29.883	0.06	0.11	0.238	0.000	82.1	35	51.7	80.8	1405	1	100.0	60
12/15/18	8:00 p	59.1	59.3	59.1	100	59.1	0.0	NNE	0.00	5.0	NNW	59.1	59.6	59.6	29.877	0.04	0.15	0.246	0.000	81.6	35	51.3	80.2	1405	1	100.0	60
12/15/18	9:00 p	59.1	59.1	59.1	100	59.1	4.0	WNW	4.00	7.0	WSW	59.1	59.6	59.6	29.866	0.03	0.07	0.246	0.000	81.2	36	51.7	79.8	1405	1	100.0	60
12/15/18	10:00 p	58.9	59.1	58.8	100	58.9	4.0	SW	4.00	11.0	W	58.9	59.4	59.4	29.855	0.01	0.00	0.254	0.000	80.7	36	51.3	79.3	1405	1	100.0	60
12/15/18	11:00 p	58.6	59.5	58.6	100	58.6	6.0	SW	6.00	15.0	SSW	57.9	59.1	58.4	29.861	0.00	0.00	0.267	0.000	80.2	36	50.8	78.8	1405	1	100.0	60
SUNDAY			Temp	Hi	Low	Out	Dew	Wind	Wind	Wind	Hi	Hi	Wind	Heat	THW			Rain	Heat	Cool	In 	In	In 	In 	Wind	Wind	ISS 	Arc.
Date		Time	Out	Temp	Temp	Hum	Pt.	Speed	Dir	Run	Speed	Dir	Chill	Index	Index	Bar  	Rain	Rate	D-D 	D-D 	Temp	Hum	Dew	Heat	Samp	Tx 	Recept	Int.
12/16/18	12:00 a	56.4	58.6	56.4	99	56.1	7.0	SW	7.00	20.0	SW	54.9	56.8	55.3	29.852	0.00	0.00	0.358	0.000	81.4	36	51.9	80.1	1405	1	100.0	60
12/16/18	1:00 a	54.5	56.4	54.5	99	54.2	7.0	SW	7.00	19.0	SW	52.6	54.9	53.0	29.862	0.00	0.00	0.438	0.000	80.5	36	51.1	79.1	1403	1	100.0	60
12/16/18	2:00 a	53.7	54.5	53.7	99	53.4	6.0	SW	6.00	14.0	W	52.0	54.1	52.4	29.867	0.00	0.00	0.471	0.000	79.7	36	50.4	78.4	1405	1	100.0	60
12/16/18	3:00 a	53.4	53.7	53.4	100	53.4	6.0	SW	6.00	16.0	SW	51.7	53.8	52.1	29.878	0.00	0.00	0.483	0.000	79.0	36	49.8	77.9	1406	1	100.0	60
12/16/18	4:00 a	52.3	53.4	52.3	98	51.8	6.0	SW	6.00	18.0	SSW	50.4	52.7	50.8	29.874	0.00	0.00	0.529	0.000	78.4	37	50.0	77.3	1404	1	100.0	60
12/16/18	5:00 a	51.1	52.3	51.1	97	50.3	6.0	SW	6.00	18.0	WSW	49.0	51.6	49.5	29.877	0.00	0.00	0.579	0.000	77.7	37	49.3	76.6	1405	1	100.0	60

			Temp	Hi	Low	Out	Dew	Wind	Wind	Wind	Hi	Hi	Wind	Heat	THW			Rain	Heat	Cool	In 	In	In 	In 	Wind	Wind	ISS 	Arc.
Date		Time	Out	Temp	Temp	Hum	Pt.	Speed	Dir	Run	Speed	Dir	Chill	Index	Index	Bar  	Rain	Rate	D-D 	D-D 	Temp	Hum	Dew	Heat	Samp	Tx 	Recept	Int.
-----------------------------------------------------------------------------------------------------------------------------------------------------------------------------------